Time,TemperatureF,DewpointF,PressureIn,WindDirection,WindDirectionDegrees,WindSpeedMPH,WindSpeedGustMPH,Humidity,HourlyPrecipIn,Conditions,Clouds,dailyrainin,SoftwareType,DateUTC
2013-03-12 00:00:00,36.3,-2.0,30.12,NNE,22,0.0,3.8,19,0.00,,---,0.00,VWS V14.00,2013-03-12 07:00:00,
2013-03-12 00:02:00,36.3,-2.0,30.12,NNE,22,0.0,0.0,19,0.00,,---,0.00,VWS V14.00,2013-03-12 07:02:00,
2013-03-12 00:03:00,36.3,-2.0,30.12,NNE,22,0.0,0.0,19,0.00,,---,0.00,VWS V14.00,2013-03-12 07:03:00,
2013-03-12 00:05:00,36.5,-1.8,30.12,SSW,202,0.0,0.0,19,0.00,,---,0.00,VWS V14.00,2013-03-12 07:05:00,
2013-03-12 00:07:00,36.7,-1.7,30.12,SSW,202,0.0,0.0,19,0.00,,---,0.00,VWS V14.00,2013-03-12 07:07:00,
2013-03-12 00:08:00,36.7,-1.7,30.12,SSW,202,0.0,0.0,19,0.00,,---,0.00,VWS V14.00,2013-03-12 07:08:00,
2013-03-12 00:10:00,36.7,-1.7,30.12,SSW,202,0.0,0.0,19,0.00,,---,0.00,VWS V14.00,2013-03-12 07:10:00,
2013-03-12 00:12:00,36.5,-1.8,30.12,SSW,202,0.0,0.0,19,0.00,,---,0.00,VWS V14.00,2013-03-12 07:12:00,
2013-03-12 00:13:00,36.7,1.4,30.12,SSW,202,0.0,0.0,22,0.00,,---,0.00,VWS V14.00,2013-03-12 07:13:00,
2013-03-12 00:15:00,33.1,-0.7,30.12,SE,135,0.0,0.0,23,0.00,,---,0.00,VWS V14.00,2013-03-12 07:15:00,
2013-03-12 00:16:00,36.9,1.6,30.12,SSW,202,0.0,0.0,22,0.00,,---,0.00,VWS V14.00,2013-03-12 07:16:00,
2013-03-12 00:17:00,36.9,1.6,30.12,SSW,202,0.0,0.0,22,0.00,,---,0.00,VWS V14.00,2013-03-12 07:17:00,
2013-03-12 00:18:00,36.9,1.6,30.12,SSW,202,0.0,0.0,22,0.00,,---,0.00,VWS V14.00,2013-03-12 07:18:00,
2013-03-12 00:20:00,33.1,-0.7,30.12,SE,135,0.0,0.0,23,0.00,,---,0.00,VWS V14.00,2013-03-12 07:20:00,
2013-03-12 00:21:00,36.7,1.4,30.12,SSW,202,0.0,0.0,22,0.00,,---,0.00,VWS V14.00,2013-03-12 07:21:00,
2013-03-12 00:22:00,36.5,1.3,30.12,SSW,202,0.0,0.0,22,0.00,,---,0.00,VWS V14.00,2013-03-12 07:22:00,
2013-03-12 00:23:00,36.5,1.3,30.12,SSW,202,0.0,0.0,22,0.00,,---,0.00,VWS V14.00,2013-03-12 07:23:00,
2013-03-12 00:24:00,36.3,1.1,30.12,SSW,202,0.0,0.0,22,0.00,,---,0.00,VWS V14.00,2013-03-12 07:24:00,
2013-03-12 00:25:00,32.5,-1.1,30.12,SE,135,0.0,0.0,23,0.00,,---,0.00,VWS V14.00,2013-03-12 07:25:00,
2013-03-12 00:26:00,36.1,1.0,30.12,SSW,202,0.0,0.0,22,0.00,,---,0.00,VWS V14.00,2013-03-12 07:26:00,
2013-03-12 00:27:00,36.1,1.0,30.12,SSW,202,0.0,0.0,22,0.00,,---,0.00,VWS V14.00,2013-03-12 07:27:00,
2013-03-12 00:28:00,36.1,1.0,30.12,SSW,202,0.0,0.0,22,0.00,,---,0.00,VWS V14.00,2013-03-12 07:28:00,
2013-03-12 00:29:00,36.1,1.0,30.12,SSW,202,0.0,0.0,22,0.00,,---,0.00,VWS V14.00,2013-03-12 07:29:00,
2013-03-12 00:30:00,32.7,-1.0,30.12,SE,135,0.0,0.0,23,0.00,,---,0.00,VWS V14.00,2013-03-12 07:30:00,
2013-03-12 00:31:00,35.4,-1.6,30.12,SSW,202,0.0,0.0,20,0.00,,---,0.00,VWS V14.00,2013-03-12 07:31:00,
2013-03-12 00:33:00,35.4,-1.6,30.12,SSW,202,0.0,0.0,20,0.00,,---,0.00,VWS V14.00,2013-03-12 07:33:00,
2013-03-12 00:34:00,35.4,-1.6,30.12,SSW,202,0.0,0.0,20,0.00,,---,0.00,VWS V14.00,2013-03-12 07:34:00,
2013-03-12 00:35:00,32.5,-1.1,30.12,SE,135,0.0,0.0,23,0.00,,---,0.00,VWS V14.00,2013-03-12 07:35:00,
2013-03-12 00:37:00,35.1,-2.0,30.12,SSW,202,0.0,0.0,20,0.00,,---,0.00,VWS V14.00,2013-03-12 07:37:00,
2013-03-12 00:38:00,34.9,-2.1,30.12,SSW,202,0.0,0.0,20,0.00,,---,0.00,VWS V14.00,2013-03-12 07:38:00,
2013-03-12 00:39:00,34.9,-2.1,30.12,SSW,202,0.0,0.0,20,0.00,,---,0.00,VWS V14.00,2013-03-12 07:39:00,
2013-03-12 00:40:00,32.0,-1.6,30.12,SE,135,0.0,0.0,23,0.00,,---,0.00,VWS V14.00,2013-03-12 07:40:00,
2013-03-12 00:42:00,34.7,-2.3,30.12,SSW,202,0.0,0.0,20,0.00,,---,0.00,VWS V14.00,2013-03-12 07:42:00,
2013-03-12 00:43:00,34.5,-2.4,30.12,SSW,202,0.0,0.0,20,0.00,,---,0.00,VWS V14.00,2013-03-12 07:43:00,
2013-03-12 00:44:00,34.5,-2.4,30.12,SSW,202,0.0,0.0,20,0.00,,---,0.00,VWS V14.00,2013-03-12 07:44:00,
2013-03-12 00:45:00,31.8,-1.8,30.12,SE,135,0.0,0.0,23,0.00,,---,0.00,VWS V14.00,2013-03-12 07:45:00,
2013-03-12 00:47:00,34.5,-2.4,30.12,SSW,202,0.0,0.0,20,0.00,,---,0.00,VWS V14.00,2013-03-12 07:47:00,
2013-03-12 00:48:00,34.5,-2.4,30.12,SSW,202,0.0,0.0,20,0.00,,---,0.00,VWS V14.00,2013-03-12 07:48:00,
2013-03-12 00:50:00,34.3,-2.6,30.12,SSW,202,0.0,0.0,20,0.00,,---,0.00,VWS V14.00,2013-03-12 07:50:00,
2013-03-12 00:52:00,34.0,-0.9,30.12,SSW,202,0.0,0.0,22,0.00,,---,0.00,VWS V14.00,2013-03-12 07:52:00,
2013-03-12 00:53:00,34.0,-0.9,30.12,SSW,202,0.0,0.0,22,0.00,,---,0.00,VWS V14.00,2013-03-12 07:53:00,
2013-03-12 00:55:00,34.0,-0.9,30.12,SSW,202,0.0,0.0,22,0.00,,---,0.00,VWS V14.00,2013-03-12 07:55:00,
2013-03-12 00:57:00,34.0,-0.9,30.12,SSW,202,0.0,0.0,22,0.00,,---,0.00,VWS V14.00,2013-03-12 07:57:00,
2013-03-12 00:58:00,33.6,-0.2,30.12,SSW,202,0.0,0.0,23,0.00,,---,0.00,VWS V14.00,2013-03-12 07:58:00,
2013-03-12 00:59:00,33.6,-0.2,30.12,SSW,202,0.0,0.0,23,0.00,,---,0.00,VWS V14.00,2013-03-12 07:59:00,
2013-03-12 01:00:00,33.4,-0.4,30.12,SSW,202,0.0,0.0,23,0.00,,---,0.00,VWS V14.00,2013-03-12 08:00:00,
2013-03-12 01:02:00,33.4,-0.4,30.12,SSW,202,0.0,0.0,23,0.00,,---,0.00,VWS V14.00,2013-03-12 08:02:00,
2013-03-12 01:03:00,33.4,-0.4,30.12,NE,45,1.3,1.3,23,0.00,,---,0.00,VWS V14.00,2013-03-12 08:03:00,
2013-03-12 01:04:00,33.6,-0.2,30.12,NE,45,1.1,1.3,23,0.00,,---,0.00,VWS V14.00,2013-03-12 08:04:00,
2013-03-12 01:05:00,33.6,-0.2,30.12,NE,45,0.9,1.3,23,0.00,,---,0.00,VWS V14.00,2013-03-12 08:05:00,
2013-03-12 01:07:00,33.6,-0.2,30.12,SE,135,0.0,0.0,23,0.00,,---,0.00,VWS V14.00,2013-03-12 08:07:00,
2013-03-12 01:08:00,33.6,-0.2,30.12,SE,135,0.0,0.0,23,0.00,,---,0.00,VWS V14.00,2013-03-12 08:08:00,
2013-03-12 01:09:00,33.6,-0.2,30.12,SE,135,0.0,0.0,23,0.00,,---,0.00,VWS V14.00,2013-03-12 08:09:00,
2013-03-12 01:10:00,33.6,-0.2,30.12,SE,135,0.0,0.0,23,0.00,,---,0.00,VWS V14.00,2013-03-12 08:10:00,
2013-03-12 01:12:00,33.3,-0.5,30.12,SE,135,0.0,0.0,23,0.00,,---,0.00,VWS V14.00,2013-03-12 08:12:00,
2013-03-12 01:13:00,33.1,-0.7,30.12,SE,135,0.0,0.0,23,0.00,,---,0.00,VWS V14.00,2013-03-12 08:13:00,
2013-03-12 01:14:00,33.1,-0.7,30.12,SE,135,0.0,0.0,23,0.00,,---,0.00,VWS V14.00,2013-03-12 08:14:00,
2013-03-12 01:15:00,33.1,-0.7,30.12,SE,135,0.0,0.0,23,0.00,,---,0.00,VWS V14.00,2013-03-12 08:15:00,
2013-03-12 01:17:00,33.3,-0.5,30.12,SE,135,0.0,0.0,23,0.00,,---,0.00,VWS V14.00,2013-03-12 08:17:00,
2013-03-12 01:18:00,33.1,-0.7,30.12,SE,135,0.0,0.0,23,0.00,,---,0.00,VWS V14.00,2013-03-12 08:18:00,
2013-03-12 01:19:00,33.1,-0.7,30.12,SE,135,0.0,0.0,23,0.00,,---,0.00,VWS V14.00,2013-03-12 08:19:00,
2013-03-12 01:20:00,33.1,-0.7,30.12,SE,135,0.0,0.0,23,0.00,,---,0.00,VWS V14.00,2013-03-12 08:20:00,
2013-03-12 01:22:00,32.7,-1.0,30.12,SE,135,0.0,0.0,23,0.00,,---,0.00,VWS V14.00,2013-03-12 08:22:00,
2013-03-12 01:24:00,32.7,-1.0,30.12,SE,135,0.0,0.0,23,0.00,,---,0.00,VWS V14.00,2013-03-12 08:24:00,
2013-03-12 01:25:00,32.5,-1.1,30.12,SE,135,0.0,0.0,23,0.00,,---,0.00,VWS V14.00,2013-03-12 08:25:00,
2013-03-12 01:27:00,32.5,-1.1,30.12,SE,135,0.0,0.0,23,0.00,,---,0.00,VWS V14.00,2013-03-12 08:27:00,
2013-03-12 01:29:00,32.5,-1.1,30.12,SE,135,0.0,0.0,23,0.00,,---,0.00,VWS V14.00,2013-03-12 08:29:00,
2013-03-12 01:30:00,32.5,-1.1,30.12,SE,135,0.0,0.0,23,0.00,,---,0.00,VWS V14.00,2013-03-12 08:30:00,
2013-03-12 01:32:00,32.7,-1.0,30.12,SE,135,0.0,0.0,23,0.00,,---,0.00,VWS V14.00,2013-03-12 08:32:00,
2013-03-12 01:34:00,32.5,-1.1,30.12,SE,135,0.0,0.0,23,0.00,,---,0.00,VWS V14.00,2013-03-12 08:34:00,
2013-03-12 01:35:00,32.5,-1.1,30.12,SE,135,0.0,0.0,23,0.00,,---,0.00,VWS V14.00,2013-03-12 08:35:00,
2013-03-12 01:38:00,32.4,-1.3,30.12,SE,135,0.0,0.0,23,0.00,,---,0.00,VWS V14.00,2013-03-12 08:38:00,
2013-03-12 01:39:00,32.2,-1.4,30.12,SE,135,0.0,0.0,23,0.00,,---,0.00,VWS V14.00,2013-03-12 08:39:00,
2013-03-12 01:40:00,32.2,-1.4,30.12,SE,135,0.0,0.0,23,0.00,,---,0.00,VWS V14.00,2013-03-12 08:40:00,
2013-03-12 01:42:00,31.8,-1.8,30.12,SE,135,0.0,0.0,23,0.00,,---,0.00,VWS V14.00,2013-03-12 08:42:00,
2013-03-12 01:43:00,31.8,-1.8,30.12,SE,135,0.0,0.0,23,0.00,,---,0.00,VWS V14.00,2013-03-12 08:43:00,
2013-03-12 01:44:00,31.8,-1.8,30.12,SE,135,0.0,0.0,23,0.00,,---,0.00,VWS V14.00,2013-03-12 08:44:00,
2013-03-12 01:45:00,31.8,-1.8,30.12,SE,135,0.0,0.0,23,0.00,,---,0.00,VWS V14.00,2013-03-12 08:45:00,
2013-03-12 01:47:00,31.8,-1.8,30.12,SE,135,0.0,0.0,23,0.00,,---,0.00,VWS V14.00,2013-03-12 08:47:00,
2013-03-12 01:48:00,31.8,-1.8,30.12,SE,135,0.0,0.0,23,0.00,,---,0.00,VWS V14.00,2013-03-12 08:48:00,
2013-03-12 01:49:00,31.8,-1.8,30.12,SE,135,0.0,0.0,23,0.00,,---,0.00,VWS V14.00,2013-03-12 08:49:00,
2013-03-12 01:50:00,31.8,-1.8,30.12,SE,135,0.0,0.0,23,0.00,,---,0.00,VWS V14.00,2013-03-12 08:50:00,
2013-03-12 01:52:00,32.0,-1.6,30.12,SE,135,0.0,0.0,23,0.00,,---,0.00,VWS V14.00,2013-03-12 08:52:00,
2013-03-12 01:53:00,32.0,-1.6,30.12,SE,135,2.9,2.9,23,0.00,,---,0.00,VWS V14.00,2013-03-12 08:53:00,
2013-03-12 01:54:00,32.0,-1.6,30.12,SE,135,3.1,3.1,23,0.00,,---,0.00,VWS V14.00,2013-03-12 08:54:00,
2013-03-12 01:55:00,32.5,0.6,30.12,SE,135,2.9,3.6,25,0.00,,---,0.00,VWS V14.00,2013-03-12 08:55:00,
2013-03-12 01:58:00,32.7,3.2,30.12,South,180,2.9,3.4,28,0.00,,---,0.00,VWS V14.00,2013-03-12 08:58:00,
2013-03-12 01:59:00,32.7,3.2,30.12,SSE,158,2.5,3.4,28,0.00,,---,0.00,VWS V14.00,2013-03-12 08:59:00,
2013-03-12 02:00:00,32.4,5.1,30.12,SW,225,0.0,0.0,31,0.00,,---,0.00,VWS V14.00,2013-03-12 09:00:00,
2013-03-12 02:01:00,32.9,3.4,30.12,SSE,158,2.7,3.4,28,0.00,,---,0.00,VWS V14.00,2013-03-12 09:01:00,
2013-03-12 02:03:00,32.9,3.4,30.12,SE,135,2.9,2.9,28,0.00,,---,0.00,VWS V14.00,2013-03-12 09:03:00,
2013-03-12 02:05:00,33.3,5.2,30.12,SSE,158,3.6,3.6,30,0.00,,---,0.00,VWS V14.00,2013-03-12 09:05:00,
2013-03-12 02:06:00,33.3,5.2,30.12,SSE,158,2.9,3.6,30,0.00,,---,0.00,VWS V14.00,2013-03-12 09:06:00,
2013-03-12 02:08:00,33.3,5.2,30.12,SSE,158,2.9,3.1,30,0.00,,---,0.00,VWS V14.00,2013-03-12 09:08:00,
2013-03-12 02:10:00,33.4,5.3,30.12,SSE,158,0.0,3.1,30,0.00,,---,0.00,VWS V14.00,2013-03-12 09:10:00,
2013-03-12 02:11:00,33.4,5.3,30.12,SSE,158,2.5,2.5,30,0.00,,---,0.00,VWS V14.00,2013-03-12 09:11:00,
2013-03-12 02:13:00,33.3,5.2,30.12,South,180,2.5,2.5,30,0.00,,---,0.00,VWS V14.00,2013-03-12 09:13:00,
2013-03-12 02:15:00,33.3,5.2,30.12,South,180,0.0,2.5,30,0.00,,---,0.00,VWS V14.00,2013-03-12 09:15:00,
2013-03-12 02:16:00,33.3,5.2,30.12,South,180,0.0,2.5,30,0.00,,---,0.00,VWS V14.00,2013-03-12 09:16:00,
2013-03-12 02:18:00,33.1,5.0,30.12,SW,225,0.0,0.9,30,0.00,,---,0.00,VWS V14.00,2013-03-12 09:18:00,
2013-03-12 02:20:00,32.9,4.9,30.12,SW,225,0.0,0.9,30,0.00,,---,0.00,VWS V14.00,2013-03-12 09:20:00,
2013-03-12 02:21:00,32.9,4.9,30.12,SW,225,0.0,0.9,30,0.00,,---,0.00,VWS V14.00,2013-03-12 09:21:00,
2013-03-12 02:23:00,32.9,4.9,30.12,SW,225,0.0,0.9,30,0.00,,---,0.00,VWS V14.00,2013-03-12 09:23:00,
2013-03-12 02:24:00,32.9,4.9,30.12,SW,225,0.0,0.9,30,0.00,,---,0.00,VWS V14.00,2013-03-12 09:24:00,
2013-03-12 02:25:00,32.5,4.6,30.12,WSW,248,0.0,0.9,30,0.00,,---,0.00,VWS V14.00,2013-03-12 09:25:00,
2013-03-12 02:26:00,32.5,4.6,30.12,WSW,248,0.0,0.0,30,0.00,,---,0.00,VWS V14.00,2013-03-12 09:26:00,
2013-03-12 02:28:00,32.5,4.6,30.12,WSW,248,0.0,0.0,30,0.00,,---,0.00,VWS V14.00,2013-03-12 09:28:00,
2013-03-12 02:29:00,32.5,4.6,30.12,WSW,248,0.0,0.0,30,0.00,,---,0.00,VWS V14.00,2013-03-12 09:29:00,
2013-03-12 02:30:00,32.5,4.6,30.12,WSW,248,0.0,0.0,30,0.00,,---,0.00,VWS V14.00,2013-03-12 09:30:00,
2013-03-12 02:32:00,32.7,4.7,30.12,WSW,248,0.0,0.9,30,0.00,,---,0.00,VWS V14.00,2013-03-12 09:32:00,
2013-03-12 02:34:00,32.7,4.7,30.12,WSW,248,0.0,0.9,30,0.00,,---,0.00,VWS V14.00,2013-03-12 09:34:00,
2013-03-12 02:35:00,32.7,4.7,30.12,WSW,248,0.0,0.9,30,0.00,,---,0.00,VWS V14.00,2013-03-12 09:35:00,
2013-03-12 02:37:00,32.5,4.6,30.12,WSW,248,0.0,0.0,30,0.00,,---,0.00,VWS V14.00,2013-03-12 09:37:00,
2013-03-12 02:39:00,32.5,4.6,30.12,WSW,248,0.0,0.0,30,0.00,,---,0.00,VWS V14.00,2013-03-12 09:39:00,
2013-03-12 02:40:00,32.4,4.4,30.12,WSW,248,0.0,0.0,30,0.00,,---,0.00,VWS V14.00,2013-03-12 09:40:00,
2013-03-12 02:42:00,32.4,2.9,30.12,WSW,248,0.0,0.0,28,0.00,,---,0.00,VWS V14.00,2013-03-12 09:42:00,
2013-03-12 02:44:00,32.4,2.9,30.12,WSW,248,0.0,0.0,28,0.00,,---,0.00,VWS V14.00,2013-03-12 09:44:00,
2013-03-12 02:45:00,32.4,4.4,30.12,WSW,248,0.0,0.0,30,0.00,,---,0.00,VWS V14.00,2013-03-12 09:45:00,
2013-03-12 02:48:00,32.5,4.6,30.12,WSW,248,0.0,0.9,30,0.00,,---,0.00,VWS V14.00,2013-03-12 09:48:00,
2013-03-12 02:49:00,32.5,4.6,30.12,WSW,248,0.0,0.9,30,0.00,,---,0.00,VWS V14.00,2013-03-12 09:49:00,
2013-03-12 02:50:00,31.1,4.0,30.12,South,180,0.0,2.5,31,0.00,,---,0.00,VWS V14.00,2013-03-12 09:50:00,
2013-03-12 02:51:00,32.5,4.6,30.12,WSW,248,0.0,0.9,30,0.00,,---,0.00,VWS V14.00,2013-03-12 09:51:00,
2013-03-12 02:53:00,32.5,4.6,30.12,SW,225,0.0,0.0,30,0.00,,---,0.00,VWS V14.00,2013-03-12 09:53:00,
2013-03-12 02:54:00,32.5,4.6,30.12,SW,225,0.0,0.0,30,0.00,,---,0.00,VWS V14.00,2013-03-12 09:54:00,
2013-03-12 02:55:00,31.1,4.0,30.12,WSW,248,0.0,0.0,31,0.00,,---,0.00,VWS V14.00,2013-03-12 09:55:00,
2013-03-12 02:56:00,32.5,4.6,30.12,SW,225,0.0,0.0,30,0.00,,---,0.00,VWS V14.00,2013-03-12 09:56:00,
2013-03-12 02:58:00,32.4,5.1,30.12,SW,225,0.0,0.0,31,0.00,,---,0.00,VWS V14.00,2013-03-12 09:58:00,
2013-03-12 02:59:00,32.5,5.3,30.12,SW,225,0.0,0.0,31,0.00,,---,0.00,VWS V14.00,2013-03-12 09:59:00,
2013-03-12 03:00:00,30.4,3.4,30.12,WSW,248,0.0,0.0,31,0.00,,---,0.00,VWS V14.00,2013-03-12 10:00:00,
2013-03-12 03:01:00,32.4,5.1,30.12,SW,225,0.0,0.0,31,0.00,,---,0.00,VWS V14.00,2013-03-12 10:01:00,
2013-03-12 03:03:00,32.4,4.4,30.12,SW,225,0.0,0.0,30,0.00,,---,0.00,VWS V14.00,2013-03-12 10:03:00,
2013-03-12 03:04:00,32.4,4.4,30.12,SW,225,0.0,0.0,30,0.00,,---,0.00,VWS V14.00,2013-03-12 10:04:00,
2013-03-12 03:05:00,29.7,2.7,30.12,WSW,248,0.0,0.0,31,0.00,,---,0.00,VWS V14.00,2013-03-12 10:05:00,
2013-03-12 03:06:00,32.4,4.4,30.12,WSW,248,0.0,0.0,30,0.00,,---,0.00,VWS V14.00,2013-03-12 10:06:00,
2013-03-12 03:08:00,32.5,5.3,30.12,WSW,248,0.0,0.0,31,0.00,,---,0.00,VWS V14.00,2013-03-12 10:08:00,
2013-03-12 03:09:00,32.4,5.1,30.12,WSW,248,0.0,0.0,31,0.00,,---,0.00,VWS V14.00,2013-03-12 10:09:00,
2013-03-12 03:10:00,29.5,2.6,30.12,WSW,248,0.0,0.0,31,0.00,,---,0.00,VWS V14.00,2013-03-12 10:10:00,
2013-03-12 03:11:00,32.4,5.1,30.12,WSW,248,0.0,0.0,31,0.00,,---,0.00,VWS V14.00,2013-03-12 10:11:00,
2013-03-12 03:13:00,32.2,5.0,30.12,WSW,248,0.0,0.0,31,0.00,,---,0.00,VWS V14.00,2013-03-12 10:13:00,
2013-03-12 03:14:00,32.2,5.0,30.12,WSW,248,0.0,0.0,31,0.00,,---,0.00,VWS V14.00,2013-03-12 10:14:00,
2013-03-12 03:15:00,29.1,2.3,30.12,WSW,248,0.0,0.0,31,0.00,,---,0.00,VWS V14.00,2013-03-12 10:15:00,
2013-03-12 03:16:00,32.2,5.0,30.12,WSW,248,0.0,0.0,31,0.00,,---,0.00,VWS V14.00,2013-03-12 10:16:00,
2013-03-12 03:18:00,32.2,5.0,30.12,SW,225,0.0,0.0,31,0.00,,---,0.00,VWS V14.00,2013-03-12 10:18:00,
2013-03-12 03:19:00,32.2,5.0,30.12,SW,225,0.0,0.0,31,0.00,,---,0.00,VWS V14.00,2013-03-12 10:19:00,
2013-03-12 03:20:00,32.2,5.0,30.12,SW,225,0.0,0.0,31,0.00,,---,0.00,VWS V14.00,2013-03-12 10:20:00,
2013-03-12 03:21:00,32.2,5.0,30.12,SE,135,2.2,2.2,31,0.00,,---,0.00,VWS V14.00,2013-03-12 10:21:00,
2013-03-12 03:23:00,31.5,4.3,30.12,SE,135,0.0,2.2,31,0.00,,---,0.00,VWS V14.00,2013-03-12 10:23:00,
2013-03-12 03:25:00,31.5,4.3,30.12,SE,135,0.0,2.2,31,0.00,,---,0.00,VWS V14.00,2013-03-12 10:25:00,
2013-03-12 03:26:00,31.3,4.2,30.12,SE,135,0.0,0.0,31,0.00,,---,0.00,VWS V14.00,2013-03-12 10:26:00,
2013-03-12 03:28:00,31.3,4.2,30.12,SE,135,0.0,0.0,31,0.00,,---,0.00,VWS V14.00,2013-03-12 10:28:00,
2013-03-12 03:30:00,31.1,4.0,30.12,SE,135,0.0,0.0,31,0.00,,---,0.00,VWS V14.00,2013-03-12 10:30:00,
2013-03-12 03:31:00,31.1,4.0,30.12,SE,135,0.0,0.0,31,0.00,,---,0.00,VWS V14.00,2013-03-12 10:31:00,
2013-03-12 03:33:00,30.9,3.8,30.12,SE,135,0.0,0.0,31,0.00,,---,0.00,VWS V14.00,2013-03-12 10:33:00,
2013-03-12 03:35:00,30.9,3.8,30.12,SE,135,0.0,0.0,31,0.00,,---,0.00,VWS V14.00,2013-03-12 10:35:00,
2013-03-12 03:36:00,30.7,3.7,30.12,SE,135,0.0,0.0,31,0.00,,---,0.00,VWS V14.00,2013-03-12 10:36:00,
2013-03-12 03:39:00,30.7,3.7,30.12,SE,135,0.0,0.0,31,0.00,,---,0.00,VWS V14.00,2013-03-12 10:39:00,
2013-03-12 03:40:00,30.6,3.5,30.12,SE,135,2.5,2.5,31,0.00,,---,0.00,VWS V14.00,2013-03-12 10:40:00,
2013-03-12 03:41:00,30.6,3.5,30.12,SE,135,2.2,2.5,31,0.00,,---,0.00,VWS V14.00,2013-03-12 10:41:00,
2013-03-12 03:44:00,30.7,3.7,30.12,SE,135,2.0,2.5,31,0.00,,---,0.00,VWS V14.00,2013-03-12 10:44:00,
2013-03-12 03:45:00,30.7,3.7,30.12,SE,135,0.0,2.5,31,0.00,,---,0.00,VWS V14.00,2013-03-12 10:45:00,
2013-03-12 03:46:00,30.7,3.7,30.12,SE,135,0.0,2.5,31,0.00,,---,0.00,VWS V14.00,2013-03-12 10:46:00,
2013-03-12 03:49:00,30.7,3.7,30.12,South,180,0.0,2.5,31,0.00,,---,0.00,VWS V14.00,2013-03-12 10:49:00,
2013-03-12 03:50:00,30.9,3.8,30.12,South,180,0.0,2.5,31,0.00,,---,0.00,VWS V14.00,2013-03-12 10:50:00,
2013-03-12 03:52:00,31.1,4.0,30.12,South,180,0.0,0.0,31,0.00,,---,0.00,VWS V14.00,2013-03-12 10:52:00,
2013-03-12 03:54:00,31.1,4.0,30.12,WSW,248,0.0,0.0,31,0.00,,---,0.00,VWS V14.00,2013-03-12 10:54:00,
2013-03-12 03:55:00,31.1,4.0,30.12,WSW,248,0.0,0.0,31,0.00,,---,0.00,VWS V14.00,2013-03-12 10:55:00,
2013-03-12 03:56:00,31.1,4.0,30.12,WSW,248,0.0,0.0,31,0.00,,---,0.00,VWS V14.00,2013-03-12 10:56:00,
2013-03-12 03:58:00,30.4,3.4,30.12,WSW,248,0.0,0.0,31,0.00,,---,0.00,VWS V14.00,2013-03-12 10:58:00,
2013-03-12 03:59:00,30.4,3.4,30.12,WSW,248,0.0,0.0,31,0.00,,---,0.00,VWS V14.00,2013-03-12 10:59:00,
2013-03-12 04:00:00,30.4,3.4,30.12,WSW,248,0.0,0.0,31,0.00,,---,0.00,VWS V14.00,2013-03-12 11:00:00,
2013-03-12 04:01:00,30.0,3.8,30.12,WSW,248,0.0,0.0,32,0.00,,---,0.00,VWS V14.00,2013-03-12 11:01:00,
2013-03-12 04:03:00,29.8,3.6,30.12,WSW,248,0.0,0.0,32,0.00,,---,0.00,VWS V14.00,2013-03-12 11:03:00,
2013-03-12 04:04:00,29.8,3.6,30.12,WSW,248,0.0,0.0,32,0.00,,---,0.00,VWS V14.00,2013-03-12 11:04:00,
2013-03-12 04:05:00,29.8,3.6,30.12,WSW,248,0.0,0.0,32,0.00,,---,0.00,VWS V14.00,2013-03-12 11:05:00,
2013-03-12 04:06:00,29.7,2.7,30.12,WSW,248,0.0,0.0,31,0.00,,---,0.00,VWS V14.00,2013-03-12 11:06:00,
2013-03-12 04:08:00,29.7,2.7,30.12,WSW,248,0.0,0.0,31,0.00,,---,0.00,VWS V14.00,2013-03-12 11:08:00,
2013-03-12 04:09:00,29.5,2.6,30.12,WSW,248,0.0,0.0,31,0.00,,---,0.00,VWS V14.00,2013-03-12 11:09:00,
2013-03-12 04:10:00,29.1,3.6,30.12,South,180,0.0,1.3,33,0.00,,---,0.00,VWS V14.00,2013-03-12 11:10:00,
2013-03-12 04:11:00,29.5,2.6,30.12,WSW,248,0.0,0.0,31,0.00,,---,0.00,VWS V14.00,2013-03-12 11:11:00,
2013-03-12 04:13:00,29.3,2.4,30.12,WSW,248,0.0,0.0,31,0.00,,---,0.00,VWS V14.00,2013-03-12 11:13:00,
2013-03-12 04:14:00,29.1,2.3,30.12,WSW,248,0.0,0.0,31,0.00,,---,0.00,VWS V14.00,2013-03-12 11:14:00,
2013-03-12 04:15:00,28.4,3.0,30.12,South,180,0.0,0.0,33,0.00,,---,0.00,VWS V14.00,2013-03-12 11:15:00,
2013-03-12 04:16:00,29.1,2.3,30.12,WSW,248,0.0,0.0,31,0.00,,---,0.00,VWS V14.00,2013-03-12 11:16:00,
2013-03-12 04:17:00,28.9,2.1,30.12,WSW,248,0.0,0.0,31,0.00,,---,0.00,VWS V14.00,2013-03-12 11:17:00,
2013-03-12 04:18:00,28.9,2.8,30.12,WSW,248,0.0,0.0,32,0.00,,---,0.00,VWS V14.00,2013-03-12 11:18:00,
2013-03-12 04:19:00,28.9,2.8,30.12,WSW,248,0.0,0.0,32,0.00,,---,0.00,VWS V14.00,2013-03-12 11:19:00,
2013-03-12 04:20:00,27.9,2.5,30.12,South,180,0.0,0.0,33,0.00,,---,0.00,VWS V14.00,2013-03-12 11:20:00,
2013-03-12 04:21:00,28.8,2.0,30.12,WSW,248,0.0,0.0,31,0.00,,---,0.00,VWS V14.00,2013-03-12 11:21:00,
2013-03-12 04:22:00,28.6,1.8,30.12,WSW,248,0.0,0.0,31,0.00,,---,0.00,VWS V14.00,2013-03-12 11:22:00,
2013-03-12 04:23:00,28.6,1.8,30.12,WSW,248,0.0,0.0,31,0.00,,---,0.00,VWS V14.00,2013-03-12 11:23:00,
2013-03-12 04:24:00,28.4,2.3,30.12,WSW,248,2.2,2.2,32,0.00,,---,0.00,VWS V14.00,2013-03-12 11:24:00,
2013-03-12 04:25:00,27.7,2.3,30.12,South,180,0.0,0.0,33,0.00,,---,0.00,VWS V14.00,2013-03-12 11:25:00,
2013-03-12 04:27:00,28.4,2.3,30.12,WSW,248,0.0,0.0,32,0.00,,---,0.00,VWS V14.00,2013-03-12 11:27:00,
2013-03-12 04:28:00,28.4,2.3,30.12,West,270,0.0,0.0,32,0.00,,---,0.00,VWS V14.00,2013-03-12 11:28:00,
2013-03-12 04:29:00,28.6,2.5,30.12,West,270,0.0,0.0,32,0.00,,---,0.00,VWS V14.00,2013-03-12 11:29:00,
2013-03-12 04:32:00,28.6,2.5,30.12,West,270,0.0,0.0,32,0.00,,---,0.00,VWS V14.00,2013-03-12 11:32:00,
2013-03-12 04:33:00,28.6,2.5,30.12,West,270,0.0,0.0,32,0.00,,---,0.00,VWS V14.00,2013-03-12 11:33:00,
2013-03-12 04:34:00,28.6,2.5,30.12,West,270,0.0,0.0,32,0.00,,---,0.00,VWS V14.00,2013-03-12 11:34:00,
2013-03-12 04:35:00,27.5,2.2,30.12,South,180,0.0,0.0,33,0.00,,---,0.00,VWS V14.00,2013-03-12 11:35:00,
2013-03-12 04:37:00,28.4,2.3,30.12,West,270,0.0,0.0,32,0.00,,---,0.00,VWS V14.00,2013-03-12 11:37:00,
2013-03-12 04:38:00,28.4,2.3,30.12,West,270,0.0,0.0,32,0.00,,---,0.00,VWS V14.00,2013-03-12 11:38:00,
2013-03-12 04:39:00,28.2,2.8,30.12,West,270,0.0,0.0,33,0.00,,---,0.00,VWS V14.00,2013-03-12 11:39:00,
2013-03-12 04:42:00,28.4,3.0,30.12,West,270,0.0,0.0,33,0.00,,---,0.00,VWS V14.00,2013-03-12 11:42:00,
2013-03-12 04:43:00,28.4,3.0,30.12,West,270,0.0,0.0,33,0.00,,---,0.00,VWS V14.00,2013-03-12 11:43:00,
2013-03-12 04:44:00,28.4,3.0,30.12,WNW,292,0.0,0.0,33,0.00,,---,0.00,VWS V14.00,2013-03-12 11:44:00,
2013-03-12 04:45:00,28.4,3.0,30.12,West,270,0.0,0.0,33,0.00,,---,0.00,VWS V14.00,2013-03-12 11:45:00,
2013-03-12 04:47:00,29.1,4.9,30.12,West,270,0.0,0.0,35,0.00,,---,0.00,VWS V14.00,2013-03-12 11:47:00,
2013-03-12 04:48:00,29.1,4.9,30.12,WNW,292,0.0,0.0,35,0.00,,---,0.00,VWS V14.00,2013-03-12 11:48:00,
2013-03-12 04:49:00,29.1,4.9,30.12,WNW,292,0.0,0.0,35,0.00,,---,0.00,VWS V14.00,2013-03-12 11:49:00,
2013-03-12 04:50:00,29.1,4.9,30.12,WNW,292,0.0,0.0,35,0.00,,---,0.00,VWS V14.00,2013-03-12 11:50:00,
2013-03-12 04:52:00,29.1,4.9,30.12,WNW,292,0.0,0.0,35,0.00,,---,0.00,VWS V14.00,2013-03-12 11:52:00,
2013-03-12 04:53:00,29.1,4.9,30.12,WNW,292,0.0,0.0,35,0.00,,---,0.00,VWS V14.00,2013-03-12 11:53:00,
2013-03-12 04:54:00,29.1,4.9,30.12,WNW,292,0.0,0.0,35,0.00,,---,0.00,VWS V14.00,2013-03-12 11:54:00,
2013-03-12 04:55:00,30.2,5.9,30.12,WNW,292,0.0,0.0,35,0.00,,---,0.00,VWS V14.00,2013-03-12 11:55:00,
2013-03-12 04:57:00,30.2,5.9,30.12,WNW,292,0.0,0.0,35,0.00,,---,0.00,VWS V14.00,2013-03-12 11:57:00,
2013-03-12 04:58:00,30.2,5.9,30.12,WNW,292,0.0,0.0,35,0.00,,---,0.00,VWS V14.00,2013-03-12 11:58:00,
2013-03-12 04:59:00,30.2,5.9,30.12,WNW,292,0.0,0.0,35,0.00,,---,0.00,VWS V14.00,2013-03-12 11:59:00,
2013-03-12 05:00:00,29.7,4.7,30.12,WNW,292,0.0,0.0,34,0.00,,---,0.00,VWS V14.00,2013-03-12 12:00:00,
2013-03-12 05:03:00,29.5,3.9,30.12,WNW,292,0.0,0.0,33,0.00,,---,0.00,VWS V14.00,2013-03-12 12:03:00,
2013-03-12 05:04:00,29.5,3.9,30.12,WSW,248,0.0,0.0,33,0.00,,---,0.00,VWS V14.00,2013-03-12 12:04:00,
2013-03-12 05:05:00,29.5,4.6,30.12,South,180,0.0,1.6,34,0.00,,---,0.00,VWS V14.00,2013-03-12 12:05:00,
2013-03-12 05:08:00,29.5,4.6,30.12,South,180,0.0,1.3,34,0.00,,---,0.00,VWS V14.00,2013-03-12 12:08:00,
2013-03-12 05:09:00,29.3,3.8,30.12,South,180,0.0,1.3,33,0.00,,---,0.00,VWS V14.00,2013-03-12 12:09:00,
2013-03-12 05:10:00,29.1,3.6,30.12,South,180,0.0,1.3,33,0.00,,---,0.00,VWS V14.00,2013-03-12 12:10:00,
2013-03-12 05:13:00,28.8,3.3,30.12,South,180,0.0,0.0,33,0.00,,---,0.00,VWS V14.00,2013-03-12 12:13:00,
2013-03-12 05:14:00,28.6,3.1,30.12,South,180,0.0,0.0,33,0.00,,---,0.00,VWS V14.00,2013-03-12 12:14:00,
2013-03-12 05:15:00,28.4,3.0,30.12,South,180,0.0,0.0,33,0.00,,---,0.00,VWS V14.00,2013-03-12 12:15:00,
2013-03-12 05:18:00,28.0,2.7,30.12,South,180,0.0,0.0,33,0.00,,---,0.00,VWS V14.00,2013-03-12 12:18:00,
2013-03-12 05:19:00,28.0,2.7,30.12,South,180,0.0,0.0,33,0.00,,---,0.00,VWS V14.00,2013-03-12 12:19:00,
2013-03-12 05:20:00,27.9,2.5,30.12,South,180,0.0,0.0,33,0.00,,---,0.00,VWS V14.00,2013-03-12 12:20:00,
2013-03-12 05:23:00,27.7,2.3,30.12,South,180,0.0,0.0,33,0.00,,---,0.00,VWS V14.00,2013-03-12 12:23:00,
2013-03-12 05:24:00,27.7,2.3,30.12,South,180,0.0,0.0,33,0.00,,---,0.00,VWS V14.00,2013-03-12 12:24:00,
2013-03-12 05:25:00,27.7,2.3,30.12,South,180,0.0,0.0,33,0.00,,---,0.00,VWS V14.00,2013-03-12 12:25:00,
2013-03-12 05:28:00,27.5,2.2,30.12,South,180,0.0,0.0,33,0.00,,---,0.00,VWS V14.00,2013-03-12 12:28:00,
2013-03-12 05:29:00,27.5,2.2,30.12,South,180,0.0,0.0,33,0.00,,---,0.00,VWS V14.00,2013-03-12 12:29:00,
2013-03-12 05:30:00,27.3,2.0,30.12,South,180,0.0,0.0,33,0.00,,---,0.00,VWS V14.00,2013-03-12 12:30:00,
2013-03-12 05:34:00,27.5,2.2,30.12,South,180,0.0,0.0,33,0.00,,---,0.00,VWS V14.00,2013-03-12 12:34:00,
2013-03-12 05:35:00,27.5,2.2,30.12,South,180,0.0,0.0,33,0.00,,---,0.00,VWS V14.00,2013-03-12 12:35:00,
2013-03-12 05:39:00,27.3,2.0,30.12,South,180,0.0,0.0,33,0.00,,---,0.00,VWS V14.00,2013-03-12 12:39:00,
2013-03-12 05:40:00,27.3,2.0,30.12,South,180,0.0,0.0,33,0.00,,---,0.00,VWS V14.00,2013-03-12 12:40:00,
2013-03-12 05:44:00,27.0,1.7,30.12,South,180,0.0,0.0,33,0.00,,---,0.00,VWS V14.00,2013-03-12 12:44:00,
2013-03-12 05:45:00,27.0,1.7,30.12,South,180,0.0,0.0,33,0.00,,---,0.00,VWS V14.00,2013-03-12 12:45:00,
2013-03-12 05:49:00,27.0,1.7,30.12,South,180,0.0,0.0,33,0.00,,---,0.00,VWS V14.00,2013-03-12 12:49:00,
2013-03-12 05:50:00,27.0,1.7,30.12,South,180,0.0,0.0,33,0.00,,---,0.00,VWS V14.00,2013-03-12 12:50:00,
2013-03-12 05:54:00,27.1,2.5,30.12,South,180,0.0,0.0,34,0.00,,---,0.00,VWS V14.00,2013-03-12 12:54:00,
2013-03-12 05:55:00,27.1,3.1,30.12,South,180,0.0,0.0,35,0.00,,---,0.00,VWS V14.00,2013-03-12 12:55:00,
2013-03-12 05:59:00,27.1,3.1,30.12,NNW,338,0.0,0.0,35,0.00,,---,0.00,VWS V14.00,2013-03-12 12:59:00,
2013-03-12 06:00:00,27.1,3.1,30.12,NNW,338,0.0,0.0,35,0.00,,---,0.00,VWS V14.00,2013-03-12 13:00:00,
2013-03-12 06:01:00,27.1,3.1,30.12,NNW,338,0.0,0.0,35,0.00,,---,0.00,VWS V14.00,2013-03-12 13:01:00,
2013-03-12 06:05:00,27.0,2.3,30.12,NNW,338,0.0,0.0,34,0.00,,---,0.00,VWS V14.00,2013-03-12 13:05:00,
2013-03-12 06:07:00,27.0,2.3,30.12,NNW,338,0.0,0.0,34,0.00,,---,0.00,VWS V14.00,2013-03-12 13:07:00,
2013-03-12 06:10:00,26.2,1.7,30.12,NNW,338,0.0,0.0,34,0.00,,---,0.00,VWS V14.00,2013-03-12 13:10:00,
2013-03-12 06:12:00,25.9,1.4,30.12,NNW,338,0.0,0.0,34,0.00,,---,0.00,VWS V14.00,2013-03-12 13:12:00,
2013-03-12 06:15:00,25.7,1.2,30.09,NNW,338,0.0,0.0,34,0.00,,---,0.00,VWS V14.00,2013-03-12 13:15:00,
2013-03-12 06:16:00,25.5,1.1,30.09,NNW,338,0.0,0.0,34,0.00,,---,0.00,VWS V14.00,2013-03-12 13:16:00,
2013-03-12 06:17:00,25.5,1.1,30.09,NNW,338,0.0,0.0,34,0.00,,---,0.00,VWS V14.00,2013-03-12 13:17:00,
2013-03-12 06:20:00,25.3,0.9,30.09,NNW,338,0.0,0.0,34,0.00,,---,0.00,VWS V14.00,2013-03-12 13:20:00,
2013-03-12 06:21:00,25.3,0.9,30.09,NNW,338,0.0,0.0,34,0.00,,---,0.00,VWS V14.00,2013-03-12 13:21:00,
2013-03-12 06:22:00,25.3,0.9,30.09,NNW,338,0.0,0.0,34,0.00,,---,0.00,VWS V14.00,2013-03-12 13:22:00,
2013-03-12 06:25:00,25.3,0.9,30.09,NNW,338,0.0,0.0,34,0.00,,---,0.00,VWS V14.00,2013-03-12 13:25:00,
2013-03-12 06:26:00,25.3,0.9,30.09,NNW,338,0.0,0.0,34,0.00,,---,0.00,VWS V14.00,2013-03-12 13:26:00,
2013-03-12 06:27:00,25.5,1.1,30.09,NNW,338,0.0,0.0,34,0.00,,---,0.00,VWS V14.00,2013-03-12 13:27:00,
2013-03-12 06:30:00,25.5,1.1,30.12,NNW,338,0.0,0.0,34,0.00,,---,0.00,VWS V14.00,2013-03-12 13:30:00,
2013-03-12 06:32:00,25.7,1.2,30.12,NNW,338,0.0,0.0,34,0.00,,---,0.00,VWS V14.00,2013-03-12 13:32:00,
2013-03-12 06:35:00,25.9,2.0,30.12,NNW,338,0.0,0.0,35,0.00,,---,0.00,VWS V14.00,2013-03-12 13:35:00,
2013-03-12 06:37:00,25.7,1.9,30.12,NNW,338,0.0,0.0,35,0.00,,---,0.00,VWS V14.00,2013-03-12 13:37:00,
2013-03-12 06:40:00,25.5,1.7,30.12,NNW,338,0.0,0.0,35,0.00,,---,0.00,VWS V14.00,2013-03-12 13:40:00,
2013-03-12 06:42:00,25.5,1.7,30.12,NNW,338,0.0,0.0,35,0.00,,---,0.00,VWS V14.00,2013-03-12 13:42:00,
2013-03-12 06:43:00,25.5,1.7,30.12,NNW,338,0.0,0.0,35,0.00,,---,0.00,VWS V14.00,2013-03-12 13:43:00,
2013-03-12 06:45:00,25.3,1.5,30.12,NNW,338,0.0,0.0,35,0.00,,---,0.00,VWS V14.00,2013-03-12 13:45:00,
2013-03-12 06:47:00,25.3,2.1,30.12,NNW,338,0.0,0.0,36,0.00,,---,0.00,VWS V14.00,2013-03-12 13:47:00,
2013-03-12 06:48:00,25.3,2.1,30.12,NNW,338,0.0,0.0,36,0.00,,---,0.00,VWS V14.00,2013-03-12 13:48:00,
2013-03-12 06:50:00,25.3,2.1,30.12,SSE,158,2.9,2.9,36,0.00,,---,0.00,VWS V14.00,2013-03-12 13:50:00,
2013-03-12 06:53:00,25.0,2.4,30.12,SE,135,2.7,3.6,37,0.00,,---,0.00,VWS V14.00,2013-03-12 13:53:00,
2013-03-12 06:55:00,35.4,9.9,30.12,SE,135,2.5,2.9,34,0.00,,---,0.00,VWS V14.00,2013-03-12 13:55:00,
2013-03-12 06:56:00,24.8,3.4,30.12,South,180,1.3,3.8,39,0.00,,---,0.00,VWS V14.00,2013-03-12 13:56:00,
2013-03-12 06:58:00,24.6,3.2,30.12,South,180,0.0,1.3,39,0.00,,---,0.00,VWS V14.00,2013-03-12 13:58:00,
2013-03-12 07:00:00,36.5,10.1,30.12,SE,135,2.5,2.7,33,0.00,,---,0.00,VWS V14.00,2013-03-12 14:00:00,
2013-03-12 07:01:00,24.4,3.0,30.12,South,180,0.0,1.3,39,0.00,,---,0.00,VWS V14.00,2013-03-12 14:01:00,
2013-03-12 07:03:00,24.4,3.0,30.12,South,180,0.0,1.3,39,0.00,,---,0.00,VWS V14.00,2013-03-12 14:03:00,
2013-03-12 07:05:00,37.4,10.9,30.12,SE,135,0.0,2.7,33,0.00,,---,0.00,VWS V14.00,2013-03-12 14:05:00,
2013-03-12 07:06:00,24.8,3.4,30.12,South,180,0.0,0.0,39,0.00,,---,0.00,VWS V14.00,2013-03-12 14:06:00,
2013-03-12 07:08:00,25.2,3.7,30.12,South,180,0.0,0.0,39,0.00,,---,0.00,VWS V14.00,2013-03-12 14:08:00,
2013-03-12 07:09:00,25.2,3.7,30.12,South,180,0.0,0.0,39,0.00,,---,0.00,VWS V14.00,2013-03-12 14:09:00,
2013-03-12 07:10:00,38.3,11.0,30.12,SE,135,0.0,1.6,32,0.00,,---,0.00,VWS V14.00,2013-03-12 14:10:00,
2013-03-12 07:11:00,25.5,4.6,30.12,South,180,0.0,0.0,40,0.00,,---,0.00,VWS V14.00,2013-03-12 14:11:00,
2013-03-12 07:13:00,25.9,5.4,30.12,South,180,0.0,0.0,41,0.00,,---,0.00,VWS V14.00,2013-03-12 14:13:00,
2013-03-12 07:14:00,25.9,5.4,30.12,South,180,0.0,0.0,41,0.00,,---,0.00,VWS V14.00,2013-03-12 14:14:00,
2013-03-12 07:15:00,39.6,11.4,30.15,South,180,0.0,2.9,31,0.00,,---,0.00,VWS V14.00,2013-03-12 14:15:00,
2013-03-12 07:17:00,26.4,5.9,30.12,South,180,0.0,0.0,41,0.00,,---,0.00,VWS V14.00,2013-03-12 14:17:00,
2013-03-12 07:18:00,27.3,6.7,30.12,South,180,0.0,0.0,41,0.00,,---,0.00,VWS V14.00,2013-03-12 14:18:00,
2013-03-12 07:19:00,27.3,6.7,30.12,South,180,0.0,0.0,41,0.00,,---,0.00,VWS V14.00,2013-03-12 14:19:00,
2013-03-12 07:20:00,40.8,11.8,30.15,SSE,158,0.0,3.4,30,0.00,,---,0.00,VWS V14.00,2013-03-12 14:20:00,
2013-03-12 07:22:00,27.3,6.7,30.12,South,180,0.0,0.0,41,0.00,,---,0.00,VWS V14.00,2013-03-12 14:22:00,
2013-03-12 07:23:00,29.1,8.4,30.12,South,180,0.0,0.0,41,0.00,,---,0.00,VWS V14.00,2013-03-12 14:23:00,
2013-03-12 07:24:00,29.1,8.4,30.12,South,180,0.0,0.0,41,0.00,,---,0.00,VWS V14.00,2013-03-12 14:24:00,
2013-03-12 07:27:00,30.0,9.2,30.12,South,180,0.0,0.0,41,0.00,,---,0.00,VWS V14.00,2013-03-12 14:27:00,
2013-03-12 07:29:00,30.0,9.2,30.12,South,180,0.0,0.0,41,0.00,,---,0.00,VWS V14.00,2013-03-12 14:29:00,
2013-03-12 07:30:00,41.2,11.4,30.15,South,180,2.7,3.4,29,0.00,,---,0.00,VWS V14.00,2013-03-12 14:30:00,
2013-03-12 07:32:00,31.3,9.8,30.12,SE,135,0.0,0.0,40,0.00,,---,0.00,VWS V14.00,2013-03-12 14:32:00,
2013-03-12 07:34:00,31.3,9.8,30.12,SE,135,0.0,0.0,40,0.00,,---,0.00,VWS V14.00,2013-03-12 14:34:00,
2013-03-12 07:35:00,41.5,11.7,30.15,ESE,112,0.0,3.4,29,0.00,,---,0.00,VWS V14.00,2013-03-12 14:35:00,
2013-03-12 07:37:00,32.2,9.4,30.12,ESE,112,0.0,0.0,38,0.00,,---,0.00,VWS V14.00,2013-03-12 14:37:00,
2013-03-12 07:39:00,32.2,9.4,30.12,ESE,112,0.0,0.0,38,0.00,,---,0.00,VWS V14.00,2013-03-12 14:39:00,
2013-03-12 07:40:00,43.5,13.4,30.15,SE,135,0.0,2.7,29,0.00,,---,0.00,VWS V14.00,2013-03-12 14:40:00,
2013-03-12 07:42:00,33.1,9.7,30.12,SE,135,0.0,0.0,37,0.00,,---,0.00,VWS V14.00,2013-03-12 14:42:00,
2013-03-12 07:44:00,33.8,9.7,30.12,SE,135,0.0,1.1,36,0.00,,---,0.00,VWS V14.00,2013-03-12 14:44:00,
2013-03-12 07:45:00,45.1,14.0,30.15,SSE,158,0.0,0.0,28,0.00,,---,0.00,VWS V14.00,2013-03-12 14:45:00,
2013-03-12 07:47:00,34.2,9.4,30.12,SE,135,1.6,2.5,35,0.00,,---,0.00,VWS V14.00,2013-03-12 14:47:00,
2013-03-12 07:49:00,34.3,9.5,30.12,SE,135,2.2,2.5,35,0.00,,---,0.00,VWS V14.00,2013-03-12 14:49:00,
2013-03-12 07:50:00,34.3,9.5,30.12,SE,135,2.2,2.5,35,0.00,,---,0.00,VWS V14.00,2013-03-12 14:50:00,
2013-03-12 07:52:00,35.4,9.9,30.12,SE,135,2.7,2.9,34,0.00,,---,0.00,VWS V14.00,2013-03-12 14:52:00,
2013-03-12 07:54:00,35.4,9.9,30.12,SE,135,0.0,2.9,34,0.00,,---,0.00,VWS V14.00,2013-03-12 14:54:00,
2013-03-12 07:55:00,35.4,9.9,30.12,SE,135,2.7,2.9,34,0.00,,---,0.00,VWS V14.00,2013-03-12 14:55:00,
2013-03-12 07:58:00,35.4,9.9,30.12,SE,135,2.5,2.5,34,0.00,,---,0.00,VWS V14.00,2013-03-12 14:58:00,
2013-03-12 07:59:00,36.1,9.8,30.12,SE,135,1.6,2.7,33,0.00,,---,0.00,VWS V14.00,2013-03-12 14:59:00,
2013-03-12 08:00:00,36.3,10.0,30.12,SE,135,2.7,2.7,33,0.00,,---,0.00,VWS V14.00,2013-03-12 15:00:00,
2013-03-12 08:03:00,36.9,10.5,30.12,SE,135,1.3,2.5,33,0.00,,---,0.00,VWS V14.00,2013-03-12 15:03:00,
2013-03-12 08:04:00,37.0,10.6,30.12,SE,135,1.6,2.5,33,0.00,,---,0.00,VWS V14.00,2013-03-12 15:04:00,
2013-03-12 08:05:00,37.4,10.9,30.12,SE,135,2.2,2.7,33,0.00,,---,0.00,VWS V14.00,2013-03-12 15:05:00,
2013-03-12 08:08:00,37.6,10.4,30.12,SE,135,0.0,0.0,32,0.00,,---,0.00,VWS V14.00,2013-03-12 15:08:00,
2013-03-12 08:09:00,37.9,10.7,30.12,SE,135,0.0,0.0,32,0.00,,---,0.00,VWS V14.00,2013-03-12 15:09:00,
2013-03-12 08:10:00,37.9,10.7,30.12,SE,135,0.0,0.0,32,0.00,,---,0.00,VWS V14.00,2013-03-12 15:10:00,
2013-03-12 08:13:00,38.5,11.2,30.12,South,180,2.9,2.9,32,0.00,,---,0.00,VWS V14.00,2013-03-12 15:13:00,
2013-03-12 08:14:00,38.5,11.2,30.12,South,180,2.7,2.9,32,0.00,,---,0.00,VWS V14.00,2013-03-12 15:14:00,
2013-03-12 08:15:00,39.6,11.4,30.15,South,180,0.0,2.9,31,0.00,,---,0.00,VWS V14.00,2013-03-12 15:15:00,
2013-03-12 08:18:00,39.9,11.8,30.15,South,180,1.1,1.1,31,0.00,,---,0.00,VWS V14.00,2013-03-12 15:18:00,
2013-03-12 08:19:00,39.9,11.8,30.15,South,180,2.9,2.9,31,0.00,,---,0.00,VWS V14.00,2013-03-12 15:19:00,
2013-03-12 08:20:00,40.8,11.8,30.15,SSE,158,2.7,3.4,30,0.00,,---,0.00,VWS V14.00,2013-03-12 15:20:00,
2013-03-12 08:23:00,41.0,12.0,30.15,SSE,158,0.0,0.0,30,0.00,,---,0.00,VWS V14.00,2013-03-12 15:23:00,
2013-03-12 08:24:00,41.4,11.5,30.15,South,180,2.0,2.0,29,0.00,,---,0.00,VWS V14.00,2013-03-12 15:24:00,
2013-03-12 08:25:00,41.4,11.5,30.15,South,180,3.4,3.4,29,0.00,,---,0.00,VWS V14.00,2013-03-12 15:25:00,
2013-03-12 08:28:00,41.5,11.7,30.15,South,180,0.0,3.4,29,0.00,,---,0.00,VWS V14.00,2013-03-12 15:28:00,
2013-03-12 08:29:00,41.2,11.4,30.15,South,180,2.9,3.4,29,0.00,,---,0.00,VWS V14.00,2013-03-12 15:29:00,
2013-03-12 08:30:00,41.0,11.2,30.15,South,180,1.6,3.4,29,0.00,,---,0.00,VWS V14.00,2013-03-12 15:30:00,
2013-03-12 08:33:00,41.2,11.4,30.15,South,180,1.1,3.4,29,0.00,,---,0.00,VWS V14.00,2013-03-12 15:33:00,
2013-03-12 08:34:00,41.5,11.7,30.15,South,180,2.9,3.4,29,0.00,,---,0.00,VWS V14.00,2013-03-12 15:34:00,
2013-03-12 08:35:00,54.5,11.9,30.15,SW,225,4.3,4.3,18,0.00,,---,0.00,VWS V14.00,2013-03-12 15:35:00,
2013-03-12 08:36:00,41.5,11.7,30.15,ESE,112,0.0,3.4,29,0.00,,---,0.00,VWS V14.00,2013-03-12 15:36:00,
2013-03-12 08:39:00,42.6,12.6,30.15,SE,135,0.0,2.7,29,0.00,,---,0.00,VWS V14.00,2013-03-12 15:39:00,
2013-03-12 08:40:00,43.2,12.3,30.15,SE,135,0.0,2.7,28,0.00,,---,0.00,VWS V14.00,2013-03-12 15:40:00,
2013-03-12 08:41:00,43.5,13.4,30.15,SE,135,0.0,2.7,29,0.00,,---,0.00,VWS V14.00,2013-03-12 15:41:00,
2013-03-12 08:44:00,44.8,13.7,30.15,SSE,158,0.0,0.0,28,0.00,,---,0.00,VWS V14.00,2013-03-12 15:44:00,
2013-03-12 08:45:00,45.0,13.8,30.15,SE,135,0.0,0.0,28,0.00,,---,0.00,VWS V14.00,2013-03-12 15:45:00,
2013-03-12 08:46:00,45.1,14.0,30.15,SSE,158,0.0,0.0,28,0.00,,---,0.00,VWS V14.00,2013-03-12 15:46:00,
2013-03-12 08:49:00,46.0,14.8,30.15,South,180,3.8,3.8,28,0.00,,---,0.00,VWS V14.00,2013-03-12 15:49:00,
2013-03-12 08:50:00,46.0,14.8,30.15,SSE,158,3.1,3.8,28,0.00,,---,0.00,VWS V14.00,2013-03-12 15:50:00,
2013-03-12 08:51:00,46.0,13.9,30.15,SW,225,0.0,3.8,27,0.00,,---,0.00,VWS V14.00,2013-03-12 15:51:00,
2013-03-12 08:54:00,46.8,11.9,30.15,SE,135,0.0,4.3,24,0.00,,---,0.00,VWS V14.00,2013-03-12 15:54:00,
2013-03-12 08:55:00,46.6,14.4,30.15,SE,135,0.0,4.3,27,0.00,,---,0.00,VWS V14.00,2013-03-12 15:55:00,
2013-03-12 08:56:00,46.6,14.4,30.15,SE,135,3.1,4.3,27,0.00,,---,0.00,VWS V14.00,2013-03-12 15:56:00,
2013-03-12 08:59:00,47.1,12.2,30.15,SE,135,2.0,3.6,24,0.00,,---,0.00,VWS V14.00,2013-03-12 15:59:00,
2013-03-12 09:00:00,47.3,12.4,30.15,SE,135,2.2,3.6,24,0.00,,---,0.00,VWS V14.00,2013-03-12 16:00:00,
2013-03-12 09:01:00,47.5,12.5,30.15,SSE,158,2.0,3.6,24,0.00,,---,0.00,VWS V14.00,2013-03-12 16:01:00,
2013-03-12 09:04:00,48.2,13.1,30.15,SSW,202,2.5,3.6,24,0.00,,---,0.00,VWS V14.00,2013-03-12 16:04:00,
2013-03-12 09:05:00,48.2,13.1,30.15,South,180,2.5,3.6,24,0.00,,---,0.00,VWS V14.00,2013-03-12 16:05:00,
2013-03-12 09:06:00,48.2,13.1,30.15,South,180,2.7,3.6,24,0.00,,---,0.00,VWS V14.00,2013-03-12 16:06:00,
2013-03-12 09:09:00,48.4,13.3,30.15,SSW,202,1.3,4.0,24,0.00,,---,0.00,VWS V14.00,2013-03-12 16:09:00,
2013-03-12 09:10:00,48.4,13.3,30.15,SSW,202,0.0,4.0,24,0.00,,---,0.00,VWS V14.00,2013-03-12 16:10:00,
2013-03-12 09:11:00,48.4,13.3,30.15,South,180,0.0,4.0,24,0.00,,---,0.00,VWS V14.00,2013-03-12 16:11:00,
2013-03-12 09:12:00,48.4,13.3,30.15,South,180,4.3,4.3,24,0.00,,---,0.00,VWS V14.00,2013-03-12 16:12:00,
2013-03-12 09:15:00,48.9,10.7,30.15,SSE,158,3.6,4.3,21,0.00,,---,0.00,VWS V14.00,2013-03-12 16:15:00,
2013-03-12 09:16:00,48.7,10.6,30.15,South,180,0.0,0.0,21,0.00,,---,0.00,VWS V14.00,2013-03-12 16:16:00,
2013-03-12 09:17:00,48.7,10.6,30.15,South,180,3.1,4.3,21,0.00,,---,0.00,VWS V14.00,2013-03-12 16:17:00,
2013-03-12 09:20:00,49.5,11.2,30.15,SW,225,2.2,4.3,21,0.00,,---,0.00,VWS V14.00,2013-03-12 16:20:00,
2013-03-12 09:22:00,50.0,11.6,30.15,SW,225,2.7,2.9,21,0.00,,---,0.00,VWS V14.00,2013-03-12 16:22:00,
2013-03-12 09:25:00,51.6,13.0,30.15,SW,225,2.9,3.1,21,0.00,,---,0.00,VWS V14.00,2013-03-12 16:25:00,
2013-03-12 09:27:00,52.0,13.3,30.15,West,270,0.0,3.1,21,0.00,,---,0.00,VWS V14.00,2013-03-12 16:27:00,
2013-03-12 09:30:00,53.2,14.3,30.15,SSW,202,2.0,4.7,21,0.00,,---,0.00,VWS V14.00,2013-03-12 16:30:00,
2013-03-12 09:32:00,53.6,13.5,30.15,SW,225,4.0,4.0,20,0.00,,---,0.00,VWS V14.00,2013-03-12 16:32:00,
2013-03-12 09:35:00,54.5,11.9,30.15,SW,225,4.3,4.3,18,0.00,,---,0.00,VWS V14.00,2013-03-12 16:35:00,
2013-03-12 09:36:00,54.5,11.9,30.15,SW,225,4.3,4.3,18,0.00,,---,0.00,VWS V14.00,2013-03-12 16:36:00,
2013-03-12 09:37:00,54.5,11.9,30.15,SSW,202,2.7,4.3,18,0.00,,---,0.00,VWS V14.00,2013-03-12 16:37:00,
2013-03-12 09:40:00,54.5,11.9,30.15,SW,225,3.1,4.3,18,0.00,,---,0.00,VWS V14.00,2013-03-12 16:40:00,
2013-03-12 09:41:00,54.5,11.9,30.15,SW,225,3.1,4.3,18,0.00,,---,0.00,VWS V14.00,2013-03-12 16:41:00,
2013-03-12 09:42:00,55.9,11.8,30.15,South,180,2.5,3.6,17,0.00,,---,0.00,VWS V14.00,2013-03-12 16:42:00,
2013-03-12 09:45:00,56.3,12.1,30.15,WSW,248,2.0,3.8,17,0.00,,---,0.00,VWS V14.00,2013-03-12 16:45:00,
2013-03-12 09:47:00,57.2,12.8,30.15,SW,225,2.2,2.2,17,0.00,,---,0.00,VWS V14.00,2013-03-12 16:47:00,
2013-03-12 09:48:00,57.2,12.8,30.15,SW,225,2.2,2.2,17,0.00,,---,0.00,VWS V14.00,2013-03-12 16:48:00,
2013-03-12 09:50:00,58.1,13.5,30.15,SSW,202,0.0,2.2,17,0.00,,---,0.00,VWS V14.00,2013-03-12 16:50:00,
2013-03-12 09:52:00,58.3,13.7,30.15,South,180,2.9,4.0,17,0.00,,---,0.00,VWS V14.00,2013-03-12 16:52:00,
2013-03-12 09:53:00,58.5,13.8,30.15,South,180,2.9,4.0,17,0.00,,---,0.00,VWS V14.00,2013-03-12 16:53:00,
2013-03-12 09:55:00,58.5,13.8,30.15,SSE,158,0.0,4.0,17,0.00,,---,0.00,VWS V14.00,2013-03-12 16:55:00,
2013-03-12 09:57:00,58.6,14.0,30.15,South,180,2.7,4.7,17,0.00,,---,0.00,VWS V14.00,2013-03-12 16:57:00,
2013-03-12 09:58:00,58.6,14.0,30.15,South,180,2.7,4.7,17,0.00,,---,0.00,VWS V14.00,2013-03-12 16:58:00,
2013-03-12 10:00:00,59.7,14.9,30.15,SW,225,0.9,4.7,17,0.00,,---,0.00,VWS V14.00,2013-03-12 17:00:00,
2013-03-12 10:03:00,59.7,14.9,30.15,SW,225,0.0,2.9,17,0.00,,---,0.00,VWS V14.00,2013-03-12 17:03:00,
2013-03-12 10:05:00,61.2,14.6,30.15,West,270,0.0,2.9,16,0.00,,---,0.00,VWS V14.00,2013-03-12 17:05:00,
2013-03-12 10:08:00,62.1,15.4,30.15,SW,225,0.0,0.0,16,0.00,,---,0.00,VWS V14.00,2013-03-12 17:08:00,
2013-03-12 10:10:00,62.8,15.9,30.15,SW,225,0.0,0.9,16,0.00,,---,0.00,VWS V14.00,2013-03-12 17:10:00,
2013-03-12 10:13:00,62.8,15.9,30.15,South,180,0.0,0.0,16,0.00,,---,0.00,VWS V14.00,2013-03-12 17:13:00,
2013-03-12 10:15:00,63.1,16.2,30.15,SSE,158,2.2,2.7,16,0.00,,---,0.00,VWS V14.00,2013-03-12 17:15:00,
2013-03-12 10:18:00,63.3,16.4,30.15,SE,135,2.0,2.9,16,0.00,,---,0.00,VWS V14.00,2013-03-12 17:18:00,
2013-03-12 10:20:00,64.4,15.8,30.15,South,180,2.7,2.9,15,0.00,,---,0.00,VWS V14.00,2013-03-12 17:20:00,
2013-03-12 10:23:00,64.2,17.1,30.15,WSW,248,0.0,2.5,16,0.00,,---,0.00,VWS V14.00,2013-03-12 17:23:00,
2013-03-12 10:24:00,64.2,17.1,30.15,WSW,248,0.0,2.5,16,0.00,,---,0.00,VWS V14.00,2013-03-12 17:24:00,
2013-03-12 10:25:00,64.2,17.1,30.15,SW,225,0.0,2.5,16,0.00,,---,0.00,VWS V14.00,2013-03-12 17:25:00,
2013-03-12 10:28:00,64.8,16.1,30.15,SE,135,0.0,1.6,15,0.00,,---,0.00,VWS V14.00,2013-03-12 17:28:00,
2013-03-12 10:29:00,64.8,16.1,30.15,SE,135,0.0,1.6,15,0.00,,---,0.00,VWS V14.00,2013-03-12 17:29:00,
2013-03-12 10:30:00,64.8,16.1,30.15,WSW,248,0.0,1.6,15,0.00,,---,0.00,VWS V14.00,2013-03-12 17:30:00,
2013-03-12 10:33:00,66.4,17.4,30.15,SE,135,2.0,3.6,15,0.00,,---,0.00,VWS V14.00,2013-03-12 17:33:00,
2013-03-12 10:34:00,66.4,17.4,30.15,SSE,158,0.0,3.6,15,0.00,,---,0.00,VWS V14.00,2013-03-12 17:34:00,
2013-03-12 10:35:00,66.4,17.4,30.15,SE,135,0.0,3.6,15,0.00,,---,0.00,VWS V14.00,2013-03-12 17:35:00,
2013-03-12 10:38:00,65.8,16.9,30.15,SE,135,0.0,2.7,15,0.00,,---,0.00,VWS V14.00,2013-03-12 17:38:00,
2013-03-12 10:39:00,67.1,17.9,30.15,SE,135,0.0,2.7,15,0.00,,---,0.00,VWS V14.00,2013-03-12 17:39:00,
2013-03-12 10:40:00,68.0,18.7,30.15,NE,45,2.5,2.7,15,0.00,,---,0.00,VWS V14.00,2013-03-12 17:40:00,
2013-03-12 10:43:00,68.2,18.8,30.15,NNW,338,0.9,2.7,15,0.00,,---,0.00,VWS V14.00,2013-03-12 17:43:00,
2013-03-12 10:44:00,68.2,18.8,30.15,NNW,338,0.9,2.7,15,0.00,,---,0.00,VWS V14.00,2013-03-12 17:44:00,
2013-03-12 10:45:00,71.8,20.1,30.15,SSE,158,0.0,4.3,14,0.00,,---,0.00,VWS V14.00,2013-03-12 17:45:00,
2013-03-12 10:47:00,68.7,19.2,30.15,NNE,22,1.6,2.5,15,0.00,,---,0.00,VWS V14.00,2013-03-12 17:47:00,
2013-03-12 10:48:00,69.4,19.8,30.15,NE,45,2.2,2.5,15,0.00,,---,0.00,VWS V14.00,2013-03-12 17:48:00,
2013-03-12 10:49:00,69.4,19.8,30.15,NNW,338,0.0,2.5,15,0.00,,---,0.00,VWS V14.00,2013-03-12 17:49:00,
2013-03-12 10:50:00,72.5,20.6,30.15,North,0,2.7,4.7,14,0.00,,---,0.00,VWS V14.00,2013-03-12 17:50:00,
2013-03-12 10:52:00,69.4,19.8,30.15,NW,315,0.0,0.0,15,0.00,,---,0.00,VWS V14.00,2013-03-12 17:52:00,
2013-03-12 10:53:00,70.2,18.8,30.15,North,0,1.3,2.5,14,0.00,,---,0.00,VWS V14.00,2013-03-12 17:53:00,
2013-03-12 10:54:00,70.2,18.8,30.15,North,0,1.3,2.5,14,0.00,,---,0.00,VWS V14.00,2013-03-12 17:54:00,
2013-03-12 10:55:00,72.7,20.8,30.15,East,90,2.2,6.0,14,0.00,,---,0.00,VWS V14.00,2013-03-12 17:55:00,
2013-03-12 10:57:00,70.2,18.8,30.15,NW,315,0.0,3.1,14,0.00,,---,0.00,VWS V14.00,2013-03-12 17:57:00,
2013-03-12 10:59:00,70.2,18.8,30.15,NNW,338,1.6,3.1,14,0.00,,---,0.00,VWS V14.00,2013-03-12 17:59:00,
2013-03-12 11:00:00,70.5,19.1,30.15,NE,45,2.2,3.6,14,0.00,,---,0.00,VWS V14.00,2013-03-12 18:00:00,
2013-03-12 11:02:00,71.1,19.5,30.15,NW,315,0.0,1.1,14,0.00,,---,0.00,VWS V14.00,2013-03-12 18:02:00,
2013-03-12 11:04:00,71.6,19.9,30.15,NNE,22,3.4,3.4,14,0.00,,---,0.00,VWS V14.00,2013-03-12 18:04:00,
2013-03-12 11:05:00,71.2,19.6,30.15,North,0,3.8,3.8,14,0.00,,---,0.00,VWS V14.00,2013-03-12 18:05:00,
2013-03-12 11:07:00,71.4,19.8,30.15,NW,315,0.0,3.4,14,0.00,,---,0.00,VWS V14.00,2013-03-12 18:07:00,
2013-03-12 11:09:00,71.6,19.9,30.15,WNW,292,0.0,3.4,14,0.00,,---,0.00,VWS V14.00,2013-03-12 18:09:00,
2013-03-12 11:10:00,71.6,19.9,30.15,West,270,2.7,3.4,14,0.00,,---,0.00,VWS V14.00,2013-03-12 18:10:00,
2013-03-12 11:13:00,72.0,20.2,30.15,South,180,0.0,1.3,14,0.00,,---,0.00,VWS V14.00,2013-03-12 18:13:00,
2013-03-12 11:14:00,71.1,19.5,30.15,East,90,2.5,3.4,14,0.00,,---,0.00,VWS V14.00,2013-03-12 18:14:00,
2013-03-12 11:15:00,70.9,19.4,30.15,NE,45,3.8,3.8,14,0.00,,---,0.00,VWS V14.00,2013-03-12 18:15:00,
2013-03-12 11:19:00,71.2,19.6,30.15,SSE,158,1.6,2.9,14,0.00,,---,0.00,VWS V14.00,2013-03-12 18:19:00,
2013-03-12 11:20:00,70.9,19.4,30.15,NNE,22,1.1,2.9,14,0.00,,---,0.00,VWS V14.00,2013-03-12 18:20:00,
2013-03-12 11:24:00,71.1,19.5,30.15,NNW,338,0.0,2.7,14,0.00,,---,0.00,VWS V14.00,2013-03-12 18:24:00,
2013-03-12 11:25:00,71.1,19.5,30.15,North,0,0.0,2.7,14,0.00,,---,0.00,VWS V14.00,2013-03-12 18:25:00,
2013-03-12 11:29:00,71.1,19.5,30.15,ENE,68,3.4,4.3,14,0.00,,---,0.00,VWS V14.00,2013-03-12 18:29:00,
2013-03-12 11:30:00,71.1,19.5,30.15,NNE,22,2.7,4.3,14,0.00,,---,0.00,VWS V14.00,2013-03-12 18:30:00,
2013-03-12 11:34:00,70.7,19.2,30.15,NNE,22,1.3,3.6,14,0.00,,---,0.00,VWS V14.00,2013-03-12 18:34:00,
2013-03-12 11:35:00,70.7,19.2,30.15,ESE,112,2.7,3.6,14,0.00,,---,0.00,VWS V14.00,2013-03-12 18:35:00,
2013-03-12 11:39:00,70.7,19.2,30.15,NNW,338,3.1,5.6,14,0.00,,---,0.00,VWS V14.00,2013-03-12 18:39:00,
2013-03-12 11:40:00,70.7,19.2,30.15,East,90,3.1,5.6,14,0.00,,---,0.00,VWS V14.00,2013-03-12 18:40:00,
2013-03-12 11:44:00,71.2,19.6,30.15,SSE,158,1.1,4.3,14,0.00,,---,0.00,VWS V14.00,2013-03-12 18:44:00,
2013-03-12 11:45:00,71.2,19.6,30.15,SSE,158,0.0,4.3,14,0.00,,---,0.00,VWS V14.00,2013-03-12 18:45:00,
2013-03-12 11:46:00,71.8,20.1,30.15,SSE,158,0.0,4.3,14,0.00,,---,0.00,VWS V14.00,2013-03-12 18:46:00,
2013-03-12 11:49:00,72.5,20.6,30.15,NNE,22,2.9,4.7,14,0.00,,---,0.00,VWS V14.00,2013-03-12 18:49:00,
2013-03-12 11:50:00,77.9,23.1,30.12,SE,135,2.0,4.9,13,0.00,,---,0.00,VWS V14.00,2013-03-12 18:50:00,
2013-03-12 11:51:00,72.5,20.6,30.15,NNE,22,2.9,4.7,14,0.00,,---,0.00,VWS V14.00,2013-03-12 18:51:00,
2013-03-12 11:54:00,72.1,20.4,30.15,SE,135,2.0,6.0,14,0.00,,---,0.00,VWS V14.00,2013-03-12 18:54:00,
2013-03-12 11:55:00,72.1,20.4,30.15,South,180,1.3,6.0,14,0.00,,---,0.00,VWS V14.00,2013-03-12 18:55:00,
2013-03-12 11:56:00,72.7,20.8,30.15,East,90,2.2,6.0,14,0.00,,---,0.00,VWS V14.00,2013-03-12 18:56:00,
2013-03-12 12:00:00,73.4,19.6,30.12,SE,135,3.4,6.5,13,0.00,,---,0.00,VWS V14.00,2013-03-12 19:00:00,
2013-03-12 12:01:00,73.4,19.6,30.12,SE,135,3.4,6.5,13,0.00,,---,0.00,VWS V14.00,2013-03-12 19:01:00,
2013-03-12 12:05:00,71.6,19.9,30.12,East,90,2.7,7.4,14,0.00,,---,0.00,VWS V14.00,2013-03-12 19:05:00,
2013-03-12 12:06:00,72.3,20.5,30.12,NNE,22,0.0,7.4,14,0.00,,---,0.00,VWS V14.00,2013-03-12 19:06:00,
2013-03-12 12:10:00,73.4,19.6,30.12,SE,135,1.1,5.4,13,0.00,,---,0.00,VWS V14.00,2013-03-12 19:10:00,
2013-03-12 12:11:00,73.4,19.6,30.12,SE,135,1.1,5.4,13,0.00,,---,0.00,VWS V14.00,2013-03-12 19:11:00,
2013-03-12 12:15:00,72.7,20.8,30.12,South,180,4.3,5.4,14,0.00,,---,0.00,VWS V14.00,2013-03-12 19:15:00,
2013-03-12 12:16:00,72.5,20.6,30.12,SE,135,3.8,5.4,14,0.00,,---,0.00,VWS V14.00,2013-03-12 19:16:00,
2013-03-12 12:17:00,72.5,20.6,30.12,South,180,2.7,4.0,14,0.00,,---,0.00,VWS V14.00,2013-03-12 19:17:00,
2013-03-12 12:20:00,73.2,21.2,30.12,SSW,202,0.0,4.0,14,0.00,,---,0.00,VWS V14.00,2013-03-12 19:20:00,
2013-03-12 12:21:00,73.2,21.2,30.12,ESE,112,4.9,4.9,14,0.00,,---,0.00,VWS V14.00,2013-03-12 19:21:00,
2013-03-12 12:22:00,73.2,21.2,30.12,NNE,22,0.0,4.9,14,0.00,,---,0.00,VWS V14.00,2013-03-12 19:22:00,
2013-03-12 12:25:00,75.7,21.5,30.12,SSE,158,0.0,4.9,13,0.00,,---,0.00,VWS V14.00,2013-03-12 19:25:00,
2013-03-12 12:26:00,75.7,21.5,30.12,SSE,158,0.0,4.9,13,0.00,,---,0.00,VWS V14.00,2013-03-12 19:26:00,
2013-03-12 12:27:00,75.7,21.5,30.12,ESE,112,3.8,4.7,13,0.00,,---,0.00,VWS V14.00,2013-03-12 19:27:00,
2013-03-12 12:30:00,74.3,20.3,30.12,ESE,112,4.7,8.1,13,0.00,,---,0.00,VWS V14.00,2013-03-12 19:30:00,
2013-03-12 12:31:00,74.1,20.2,30.12,SE,135,3.4,6.5,13,0.00,,---,0.00,VWS V14.00,2013-03-12 19:31:00,
2013-03-12 12:32:00,74.1,20.2,30.12,East,90,5.8,6.5,13,0.00,,---,0.00,VWS V14.00,2013-03-12 19:32:00,
2013-03-12 12:35:00,74.5,20.5,30.12,NNE,22,0.9,6.5,13,0.00,,---,0.00,VWS V14.00,2013-03-12 19:35:00,
2013-03-12 12:37:00,74.5,20.5,30.12,North,0,0.9,2.7,13,0.00,,---,0.00,VWS V14.00,2013-03-12 19:37:00,
2013-03-12 12:40:00,75.4,21.2,30.12,East,90,1.3,4.9,13,0.00,,---,0.00,VWS V14.00,2013-03-12 19:40:00,
2013-03-12 12:42:00,75.6,21.3,30.12,NNE,22,5.4,6.0,13,0.00,,---,0.00,VWS V14.00,2013-03-12 19:42:00,
2013-03-12 12:45:00,76.5,22.0,30.12,South,180,1.6,6.0,13,0.00,,---,0.00,VWS V14.00,2013-03-12 19:45:00,
2013-03-12 12:47:00,76.5,22.0,30.12,NE,45,2.9,2.9,13,0.00,,---,0.00,VWS V14.00,2013-03-12 19:47:00,
2013-03-12 12:50:00,77.9,23.1,30.12,South,180,2.0,4.9,13,0.00,,---,0.00,VWS V14.00,2013-03-12 19:50:00,
2013-03-12 12:52:00,78.1,23.3,30.12,NNE,22,3.4,3.6,13,0.00,,---,0.00,VWS V14.00,2013-03-12 19:52:00,
2013-03-12 12:53:00,78.1,23.3,30.12,NE,45,2.7,3.6,13,0.00,,---,0.00,VWS V14.00,2013-03-12 19:53:00,
2013-03-12 12:55:00,76.5,22.0,30.12,SE,135,6.5,6.5,13,0.00,,---,0.00,VWS V14.00,2013-03-12 19:55:00,
2013-03-12 12:56:00,75.4,21.2,30.12,SE,135,4.9,6.5,13,0.00,,---,0.00,VWS V14.00,2013-03-12 19:56:00,
2013-03-12 12:57:00,75.0,20.9,30.12,SE,135,5.8,6.5,13,0.00,,---,0.00,VWS V14.00,2013-03-12 19:57:00,
2013-03-12 12:58:00,75.0,20.9,30.12,SE,135,5.8,6.5,13,0.00,,---,0.00,VWS V14.00,2013-03-12 19:58:00,
2013-03-12 13:00:00,79.7,22.6,30.12,SE,135,2.5,6.0,12,0.00,,---,0.00,VWS V14.00,2013-03-12 20:00:00,
2013-03-12 13:01:00,74.7,20.6,30.12,ESE,112,5.4,6.5,13,0.00,,---,0.00,VWS V14.00,2013-03-12 20:01:00,
2013-03-12 13:02:00,74.7,20.6,30.12,SE,135,5.4,5.4,13,0.00,,---,0.00,VWS V14.00,2013-03-12 20:02:00,
2013-03-12 13:03:00,74.7,20.6,30.12,NNE,22,2.5,5.4,13,0.00,,---,0.00,VWS V14.00,2013-03-12 20:03:00,
2013-03-12 13:05:00,79.3,22.4,30.12,SE,135,2.2,6.5,12,0.00,,---,0.00,VWS V14.00,2013-03-12 20:05:00,
2013-03-12 13:06:00,76.8,22.3,30.12,ENE,68,2.9,5.4,13,0.00,,---,0.00,VWS V14.00,2013-03-12 20:06:00,
2013-03-12 13:07:00,76.8,22.3,30.12,East,90,2.5,2.9,13,0.00,,---,0.00,VWS V14.00,2013-03-12 20:07:00,
2013-03-12 13:08:00,76.8,22.3,30.12,East,90,57.5,57.5,13,0.00,,---,0.00,VWS V14.00,2013-03-12 20:08:00,
2013-03-12 13:10:00,79.3,22.4,30.12,East,90,2.0,2.5,12,0.00,,---,0.00,VWS V14.00,2013-03-12 20:10:00,
2013-03-12 13:11:00,76.5,22.0,30.12,SE,135,1.3,57.5,13,0.00,,---,0.00,VWS V14.00,2013-03-12 20:11:00,
2013-03-12 13:12:00,76.6,22.1,30.12,SSW,202,1.6,4.3,13,0.00,,---,0.00,VWS V14.00,2013-03-12 20:12:00,
2013-03-12 13:13:00,76.6,22.1,30.12,SSW,202,1.6,4.3,13,0.00,,---,0.00,VWS V14.00,2013-03-12 20:13:00,
2013-03-12 13:15:00,82.8,23.0,30.09,East,90,4.0,5.4,11,0.00,,---,0.00,VWS V14.00,2013-03-12 20:15:00,
2013-03-12 13:16:00,77.2,22.6,30.12,SE,135,2.5,4.3,13,0.00,,---,0.00,VWS V14.00,2013-03-12 20:16:00,
2013-03-12 13:17:00,77.2,22.6,30.12,SE,135,2.5,4.3,13,0.00,,---,0.00,VWS V14.00,2013-03-12 20:17:00,
2013-03-12 13:18:00,76.5,22.0,30.12,East,90,6.5,8.1,13,0.00,,---,0.00,VWS V14.00,2013-03-12 20:18:00,
2013-03-12 13:20:00,82.8,23.0,30.09,NNE,22,2.0,4.3,11,0.00,,---,0.00,VWS V14.00,2013-03-12 20:20:00,
2013-03-12 13:21:00,76.5,22.0,30.12,SE,135,4.9,8.1,13,0.00,,---,0.00,VWS V14.00,2013-03-12 20:21:00,
2013-03-12 13:22:00,76.5,22.0,30.12,WSW,248,0.0,8.1,13,0.00,,---,0.00,VWS V14.00,2013-03-12 20:22:00,
2013-03-12 13:23:00,77.0,22.4,30.12,SSW,202,2.2,8.1,13,0.00,,---,0.00,VWS V14.00,2013-03-12 20:23:00,
2013-03-12 13:25:00,79.7,22.6,30.09,SSW,202,2.7,4.7,12,0.00,,---,0.00,VWS V14.00,2013-03-12 20:25:00,
2013-03-12 13:26:00,78.8,22.0,30.12,SW,225,0.9,8.1,12,0.00,,---,0.00,VWS V14.00,2013-03-12 20:26:00,
2013-03-12 13:27:00,78.8,22.0,30.12,SE,135,2.7,8.1,12,0.00,,---,0.00,VWS V14.00,2013-03-12 20:27:00,
2013-03-12 13:28:00,79.7,22.6,30.12,South,180,1.6,8.1,12,0.00,,---,0.00,VWS V14.00,2013-03-12 20:28:00,
2013-03-12 13:30:00,79.7,22.6,30.06,NNE,22,3.6,4.0,12,0.00,,---,0.00,VWS V14.00,2013-03-12 20:30:00,
2013-03-12 13:31:00,77.5,22.9,30.12,ESE,112,5.6,5.6,13,0.00,,---,0.00,VWS V14.00,2013-03-12 20:31:00,
2013-03-12 13:32:00,78.1,23.3,30.12,ENE,68,0.0,5.6,13,0.00,,---,0.00,VWS V14.00,2013-03-12 20:32:00,
2013-03-12 13:33:00,78.6,23.7,30.12,NE,45,4.3,5.6,13,0.00,,---,0.00,VWS V14.00,2013-03-12 20:33:00,
2013-03-12 13:35:00,79.7,22.6,30.06,SE,135,1.1,5.4,12,0.00,,---,0.00,VWS V14.00,2013-03-12 20:35:00,
2013-03-12 13:37:00,80.4,23.2,30.12,ENE,68,2.7,5.6,12,0.00,,---,0.00,VWS V14.00,2013-03-12 20:37:00,
2013-03-12 13:38:00,79.2,22.2,30.12,NNE,22,1.6,5.6,12,0.00,,---,0.00,VWS V14.00,2013-03-12 20:38:00,
2013-03-12 13:39:00,79.5,22.5,30.12,North,0,3.8,5.6,12,0.00,,---,0.00,VWS V14.00,2013-03-12 20:39:00,
2013-03-12 13:40:00,80.1,22.9,30.06,NE,45,4.9,6.5,12,0.00,,---,0.00,VWS V14.00,2013-03-12 20:40:00,
2013-03-12 13:42:00,79.5,22.5,30.12,SW,225,0.0,5.6,12,0.00,,---,0.00,VWS V14.00,2013-03-12 20:42:00,
2013-03-12 13:43:00,79.5,22.5,30.12,SW,225,0.0,5.6,12,0.00,,---,0.00,VWS V14.00,2013-03-12 20:43:00,
2013-03-12 13:44:00,79.5,22.5,30.12,NE,45,4.5,5.6,12,0.00,,---,0.00,VWS V14.00,2013-03-12 20:44:00,
2013-03-12 13:45:00,80.8,23.5,30.06,South,180,5.8,5.8,12,0.00,,---,0.00,VWS V14.00,2013-03-12 20:45:00,
2013-03-12 13:47:00,79.7,22.6,30.12,SE,135,7.4,7.4,12,0.00,,---,0.00,VWS V14.00,2013-03-12 20:47:00,
2013-03-12 13:48:00,78.8,22.0,30.12,SE,135,6.3,7.4,12,0.00,,---,0.00,VWS V14.00,2013-03-12 20:48:00,
2013-03-12 13:49:00,78.4,23.6,30.12,SE,135,5.8,7.8,13,0.00,,---,0.00,VWS V14.00,2013-03-12 20:49:00,
2013-03-12 13:50:00,80.2,23.1,30.06,SE,135,0.0,5.8,12,0.00,,---,0.00,VWS V14.00,2013-03-12 20:50:00,
2013-03-12 13:52:00,77.5,22.9,30.12,South,180,3.8,5.8,13,0.00,,---,0.00,VWS V14.00,2013-03-12 20:52:00,
2013-03-12 13:53:00,77.5,22.9,30.12,SW,225,0.0,5.8,13,0.00,,---,0.00,VWS V14.00,2013-03-12 20:53:00,
2013-03-12 13:54:00,78.6,23.7,30.12,WSW,248,0.0,5.8,13,0.00,,---,0.00,VWS V14.00,2013-03-12 20:54:00,
2013-03-12 13:55:00,82.6,22.8,30.06,NNE,22,0.0,5.8,11,0.00,,---,0.00,VWS V14.00,2013-03-12 20:55:00,
2013-03-12 13:57:00,79.7,22.6,30.12,West,270,2.0,3.1,12,0.00,,---,0.00,VWS V14.00,2013-03-12 20:57:00,
2013-03-12 13:58:00,79.7,22.6,30.12,West,270,2.0,3.1,12,0.00,,---,0.00,VWS V14.00,2013-03-12 20:58:00,
2013-03-12 13:59:00,79.7,22.6,30.12,SE,135,2.5,3.1,12,0.00,,---,0.00,VWS V14.00,2013-03-12 20:59:00,
2013-03-12 14:00:00,81.5,24.0,30.06,South,180,3.1,4.3,12,0.00,,---,0.00,VWS V14.00,2013-03-12 21:00:00,
2013-03-12 14:02:00,79.0,22.1,30.12,ESE,112,4.0,6.5,12,0.00,,---,0.00,VWS V14.00,2013-03-12 21:02:00,
2013-03-12 14:03:00,79.0,22.1,30.12,ESE,112,4.0,6.5,12,0.00,,---,0.00,VWS V14.00,2013-03-12 21:03:00,
2013-03-12 14:04:00,79.0,22.1,30.12,East,90,4.3,6.5,12,0.00,,---,0.00,VWS V14.00,2013-03-12 21:04:00,
2013-03-12 14:05:00,82.2,24.6,30.06,SW,225,3.4,3.6,12,0.00,,---,0.00,VWS V14.00,2013-03-12 21:05:00,
2013-03-12 14:07:00,79.3,22.4,30.12,NNW,338,1.1,2.5,12,0.00,,---,0.00,VWS V14.00,2013-03-12 21:07:00,
2013-03-12 14:08:00,79.3,22.4,30.12,NNW,338,0.0,2.5,12,0.00,,---,0.00,VWS V14.00,2013-03-12 21:08:00,
2013-03-12 14:09:00,79.3,22.4,30.12,NNW,338,0.0,2.5,12,0.00,,---,0.00,VWS V14.00,2013-03-12 21:09:00,
2013-03-12 14:10:00,82.2,24.6,30.06,WSW,248,6.3,6.3,12,0.00,,---,0.00,VWS V14.00,2013-03-12 21:10:00,
2013-03-12 14:12:00,82.8,23.0,30.09,North,0,1.6,5.4,11,0.00,,---,0.00,VWS V14.00,2013-03-12 21:12:00,
2013-03-12 14:13:00,82.8,23.0,30.09,North,0,2.7,5.4,11,0.00,,---,0.00,VWS V14.00,2013-03-12 21:13:00,
2013-03-12 14:14:00,82.8,23.0,30.09,North,0,4.3,5.4,11,0.00,,---,0.00,VWS V14.00,2013-03-12 21:14:00,
2013-03-12 14:15:00,81.9,24.3,30.06,South,180,2.7,6.3,12,0.00,,---,0.00,VWS V14.00,2013-03-12 21:15:00,
2013-03-12 14:18:00,82.8,23.0,30.09,SE,135,1.1,4.3,11,0.00,,---,0.00,VWS V14.00,2013-03-12 21:18:00,
2013-03-12 14:19:00,82.8,23.0,30.09,SE,135,2.0,4.3,11,0.00,,---,0.00,VWS V14.00,2013-03-12 21:19:00,
2013-03-12 14:20:00,82.2,24.6,30.06,ESE,112,2.7,4.0,12,0.00,,---,0.00,VWS V14.00,2013-03-12 21:20:00,
2013-03-12 14:23:00,82.8,23.0,30.09,South,180,2.7,4.7,11,0.00,,---,0.00,VWS V14.00,2013-03-12 21:23:00,
2013-03-12 14:24:00,80.1,22.9,30.09,South,180,1.6,4.7,12,0.00,,---,0.00,VWS V14.00,2013-03-12 21:24:00,
2013-03-12 14:28:00,79.7,22.6,30.06,East,90,3.1,4.0,12,0.00,,---,0.00,VWS V14.00,2013-03-12 21:28:00,
2013-03-12 14:29:00,79.7,22.6,30.06,SE,135,0.9,4.0,12,0.00,,---,0.00,VWS V14.00,2013-03-12 21:29:00,
2013-03-12 14:30:00,79.7,22.6,30.06,East,90,3.8,4.0,12,0.00,,---,0.00,VWS V14.00,2013-03-12 21:30:00,
2013-03-12 14:33:00,79.7,22.6,30.06,SE,135,3.6,3.6,12,0.00,,---,0.00,VWS V14.00,2013-03-12 21:33:00,
2013-03-12 14:34:00,79.7,22.6,30.06,SE,135,4.0,5.4,12,0.00,,---,0.00,VWS V14.00,2013-03-12 21:34:00,
2013-03-12 14:35:00,79.7,22.6,30.06,SE,135,4.0,5.4,12,0.00,,---,0.00,VWS V14.00,2013-03-12 21:35:00,
2013-03-12 14:38:00,80.1,22.9,30.06,ENE,68,6.5,6.5,12,0.00,,---,0.00,VWS V14.00,2013-03-12 21:38:00,
2013-03-12 14:40:00,80.1,22.9,30.06,NE,45,4.9,6.5,12,0.00,,---,0.00,VWS V14.00,2013-03-12 21:40:00,
2013-03-12 14:41:00,80.1,22.9,30.06,NE,45,4.9,6.5,12,0.00,,---,0.00,VWS V14.00,2013-03-12 21:41:00,
2013-03-12 14:43:00,81.0,23.6,30.06,SE,135,2.9,4.9,12,0.00,,---,0.00,VWS V14.00,2013-03-12 21:43:00,
2013-03-12 14:45:00,81.0,23.6,30.06,SE,135,2.9,4.9,12,0.00,,---,0.00,VWS V14.00,2013-03-12 21:45:00,
2013-03-12 14:46:00,80.8,23.5,30.06,South,180,4.0,4.9,12,0.00,,---,0.00,VWS V14.00,2013-03-12 21:46:00,
2013-03-12 14:49:00,80.2,23.1,30.06,SE,135,0.0,5.8,12,0.00,,---,0.00,VWS V14.00,2013-03-12 21:49:00,
2013-03-12 14:50:00,80.2,23.1,30.06,SE,135,0.0,5.8,12,0.00,,---,0.00,VWS V14.00,2013-03-12 21:50:00,
2013-03-12 14:51:00,80.2,23.1,30.06,SE,135,0.0,5.8,12,0.00,,---,0.00,VWS V14.00,2013-03-12 21:51:00,
2013-03-12 14:54:00,80.2,23.1,30.06,East,90,5.8,5.8,12,0.00,,---,0.00,VWS V14.00,2013-03-12 21:54:00,
2013-03-12 14:55:00,81.9,24.3,30.06,ENE,68,2.5,5.8,12,0.00,,---,0.00,VWS V14.00,2013-03-12 21:55:00,
2013-03-12 14:56:00,82.6,22.8,30.06,NNE,22,0.0,5.8,11,0.00,,---,0.00,VWS V14.00,2013-03-12 21:56:00,
2013-03-12 14:59:00,82.9,23.1,30.06,East,90,3.6,4.3,11,0.00,,---,0.00,VWS V14.00,2013-03-12 21:59:00,
2013-03-12 15:00:00,81.5,24.0,30.06,South,180,3.4,4.3,12,0.00,,---,0.00,VWS V14.00,2013-03-12 22:00:00,
2013-03-12 15:01:00,81.5,24.0,30.06,South,180,3.1,4.3,12,0.00,,---,0.00,VWS V14.00,2013-03-12 22:01:00,
2013-03-12 15:04:00,82.2,24.6,30.06,South,180,0.0,3.6,12,0.00,,---,0.00,VWS V14.00,2013-03-12 22:04:00,
2013-03-12 15:05:00,82.2,24.6,30.06,South,180,0.0,3.6,12,0.00,,---,0.00,VWS V14.00,2013-03-12 22:05:00,
2013-03-12 15:06:00,82.2,24.6,30.06,SW,225,2.5,3.4,12,0.00,,---,0.00,VWS V14.00,2013-03-12 22:06:00,
2013-03-12 15:09:00,82.2,24.6,30.06,SE,135,1.3,3.4,12,0.00,,---,0.00,VWS V14.00,2013-03-12 22:09:00,
2013-03-12 15:10:00,82.2,24.6,30.06,SE,135,0.0,3.4,12,0.00,,---,0.00,VWS V14.00,2013-03-12 22:10:00,
2013-03-12 15:12:00,81.7,24.2,30.06,SE,135,4.7,6.3,12,0.00,,---,0.00,VWS V14.00,2013-03-12 22:12:00,
2013-03-12 15:14:00,81.5,24.0,30.06,ESE,112,2.7,6.3,12,0.00,,---,0.00,VWS V14.00,2013-03-12 22:14:00,
2013-03-12 15:15:00,78.8,22.0,30.06,ESE,112,6.3,6.9,12,0.00,,---,0.00,VWS V14.00,2013-03-12 22:15:00,
2013-03-12 15:16:00,81.9,24.3,30.06,South,180,2.7,6.3,12,0.00,,---,0.00,VWS V14.00,2013-03-12 22:16:00,
2013-03-12 15:17:00,81.7,24.2,30.06,SE,135,3.8,4.0,12,0.00,,---,0.00,VWS V14.00,2013-03-12 22:17:00,
2013-03-12 15:19:00,82.4,22.7,30.06,SE,135,3.1,4.0,11,0.00,,---,0.00,VWS V14.00,2013-03-12 22:19:00,
2013-03-12 15:20:00,78.3,23.4,30.06,South,180,3.4,6.3,13,0.00,,---,0.00,VWS V14.00,2013-03-12 22:20:00,
2013-03-12 15:21:00,82.2,24.6,30.06,ESE,112,2.7,4.0,12,0.00,,---,0.00,VWS V14.00,2013-03-12 22:21:00,
2013-03-12 15:22:00,82.4,22.7,30.06,SE,135,1.6,3.6,11,0.00,,---,0.00,VWS V14.00,2013-03-12 22:22:00,
2013-03-12 15:24:00,83.5,23.5,30.06,East,90,3.1,3.6,11,0.00,,---,0.00,VWS V14.00,2013-03-12 22:24:00,
2013-03-12 15:25:00,79.2,22.2,30.06,SW,225,3.8,3.8,12,0.00,,---,0.00,VWS V14.00,2013-03-12 22:25:00,
2013-03-12 15:26:00,83.5,23.5,30.06,North,0,2.5,3.6,11,0.00,,---,0.00,VWS V14.00,2013-03-12 22:26:00,
2013-03-12 15:27:00,83.5,23.5,30.06,ESE,112,2.7,3.6,11,0.00,,---,0.00,VWS V14.00,2013-03-12 22:27:00,
2013-03-12 15:29:00,83.5,23.5,30.06,SE,135,3.8,3.8,11,0.00,,---,0.00,VWS V14.00,2013-03-12 22:29:00,
2013-03-12 15:30:00,78.4,23.6,30.06,West,270,2.5,4.7,13,0.00,,---,0.00,VWS V14.00,2013-03-12 22:30:00,
2013-03-12 15:32:00,83.5,23.5,30.06,NNE,22,0.0,0.0,11,0.00,,---,0.00,VWS V14.00,2013-03-12 22:32:00,
2013-03-12 15:34:00,81.5,24.0,30.06,ESE,112,6.0,7.2,12,0.00,,---,0.00,VWS V14.00,2013-03-12 22:34:00,
2013-03-12 15:35:00,81.5,24.0,30.06,ESE,112,6.0,7.2,12,0.00,,---,0.00,VWS V14.00,2013-03-12 22:35:00,
2013-03-12 15:37:00,81.5,24.0,30.06,SSE,158,8.5,8.5,12,0.00,,---,0.00,VWS V14.00,2013-03-12 22:37:00,
2013-03-12 15:39:00,79.2,22.2,30.06,SSE,158,4.3,8.5,12,0.00,,---,0.00,VWS V14.00,2013-03-12 22:39:00,
2013-03-12 15:40:00,79.2,22.2,30.06,SSE,158,3.4,8.5,12,0.00,,---,0.00,VWS V14.00,2013-03-12 22:40:00,
2013-03-12 15:42:00,79.5,22.5,30.06,SSW,202,4.0,4.0,12,0.00,,---,0.00,VWS V14.00,2013-03-12 22:42:00,
2013-03-12 15:44:00,78.8,22.0,30.06,SW,225,3.6,4.9,12,0.00,,---,0.00,VWS V14.00,2013-03-12 22:44:00,
2013-03-12 15:45:00,78.8,22.0,30.06,SW,225,3.6,4.9,12,0.00,,---,0.00,VWS V14.00,2013-03-12 22:45:00,
2013-03-12 15:47:00,79.2,22.2,30.06,SE,135,6.9,6.9,12,0.00,,---,0.00,VWS V14.00,2013-03-12 22:47:00,
2013-03-12 15:49:00,79.3,22.4,30.06,SE,135,3.6,6.9,12,0.00,,---,0.00,VWS V14.00,2013-03-12 22:49:00,
2013-03-12 15:50:00,79.5,22.5,30.06,East,90,6.3,6.9,12,0.00,,---,0.00,VWS V14.00,2013-03-12 22:50:00,
2013-03-12 15:53:00,79.5,22.5,30.06,East,90,5.8,7.8,12,0.00,,---,0.00,VWS V14.00,2013-03-12 22:53:00,
2013-03-12 15:54:00,79.5,22.5,30.06,East,90,7.6,7.8,12,0.00,,---,0.00,VWS V14.00,2013-03-12 22:54:00,
2013-03-12 15:55:00,79.5,22.5,30.06,East,90,5.8,7.8,12,0.00,,---,0.00,VWS V14.00,2013-03-12 22:55:00,
2013-03-12 15:58:00,78.3,23.4,30.03,SE,135,2.5,7.8,13,0.00,,---,0.00,VWS V14.00,2013-03-12 22:58:00,
2013-03-12 15:59:00,78.6,23.7,30.03,ENE,68,3.1,7.8,13,0.00,,---,0.00,VWS V14.00,2013-03-12 22:59:00,
2013-03-12 16:00:00,78.6,23.7,30.03,East,90,5.8,7.8,13,0.00,,---,0.00,VWS V14.00,2013-03-12 23:00:00,
2013-03-12 16:03:00,79.7,22.6,30.03,East,90,0.0,4.3,12,0.00,,---,0.00,VWS V14.00,2013-03-12 23:03:00,
2013-03-12 16:04:00,80.2,23.1,30.03,ENE,68,0.0,4.3,12,0.00,,---,0.00,VWS V14.00,2013-03-12 23:04:00,
2013-03-12 16:05:00,80.2,23.1,30.03,ENE,68,0.0,4.3,12,0.00,,---,0.00,VWS V14.00,2013-03-12 23:05:00,
2013-03-12 16:08:00,79.9,22.8,30.03,SE,135,7.6,7.6,12,0.00,,---,0.00,VWS V14.00,2013-03-12 23:08:00,
2013-03-12 16:09:00,79.3,22.4,30.03,SE,135,4.3,7.6,12,0.00,,---,0.00,VWS V14.00,2013-03-12 23:09:00,
2013-03-12 16:10:00,77.5,22.9,30.06,East,90,4.5,4.7,13,0.00,,---,0.00,VWS V14.00,2013-03-12 23:10:00,
2013-03-12 16:11:00,79.0,22.1,30.03,SE,135,6.0,6.0,12,0.00,,---,0.00,VWS V14.00,2013-03-12 23:11:00,
2013-03-12 16:13:00,78.8,22.0,30.06,SE,135,3.8,6.5,12,0.00,,---,0.00,VWS V14.00,2013-03-12 23:13:00,
2013-03-12 16:14:00,78.8,22.0,30.06,ESE,112,3.4,6.5,12,0.00,,---,0.00,VWS V14.00,2013-03-12 23:14:00,
2013-03-12 16:15:00,78.8,22.0,30.06,SE,135,6.0,6.5,12,0.00,,---,0.00,VWS V14.00,2013-03-12 23:15:00,
2013-03-12 16:17:00,78.3,23.4,30.06,ESE,112,4.9,6.3,13,0.00,,---,0.00,VWS V14.00,2013-03-12 23:17:00,
2013-03-12 16:18:00,78.3,23.4,30.06,SE,135,2.5,6.3,13,0.00,,---,0.00,VWS V14.00,2013-03-12 23:18:00,
2013-03-12 16:19:00,78.3,23.4,30.06,ESE,112,1.6,6.3,13,0.00,,---,0.00,VWS V14.00,2013-03-12 23:19:00,
2013-03-12 16:20:00,78.3,23.4,30.06,SSE,158,3.1,6.3,13,0.00,,---,0.00,VWS V14.00,2013-03-12 23:20:00,
2013-03-12 16:22:00,78.8,22.0,30.06,SSE,158,3.1,3.8,12,0.00,,---,0.00,VWS V14.00,2013-03-12 23:22:00,
2013-03-12 16:23:00,79.0,22.1,30.06,South,180,2.5,3.8,12,0.00,,---,0.00,VWS V14.00,2013-03-12 23:23:00,
2013-03-12 16:25:00,79.5,22.5,30.06,West,270,0.0,3.8,12,0.00,,---,0.00,VWS V14.00,2013-03-12 23:25:00,
2013-03-12 16:27:00,78.8,22.0,30.06,SW,225,3.8,4.7,12,0.00,,---,0.00,VWS V14.00,2013-03-12 23:27:00,
2013-03-12 16:28:00,78.6,23.7,30.06,SW,225,3.6,4.7,13,0.00,,---,0.00,VWS V14.00,2013-03-12 23:28:00,
2013-03-12 16:30:00,78.4,23.6,30.06,WSW,248,3.4,4.7,13,0.00,,---,0.00,VWS V14.00,2013-03-12 23:30:00,
2013-03-12 16:31:00,79.0,22.1,30.06,WNW,292,1.6,3.4,12,0.00,,---,0.00,VWS V14.00,2013-03-12 23:31:00,
2013-03-12 16:32:00,79.2,22.2,30.06,West,270,4.3,4.3,12,0.00,,---,0.00,VWS V14.00,2013-03-12 23:32:00,
2013-03-12 16:33:00,79.5,22.5,30.06,NW,315,2.0,4.3,12,0.00,,---,0.00,VWS V14.00,2013-03-12 23:33:00,
2013-03-12 16:35:00,79.7,22.6,30.06,NW,315,0.0,4.3,12,0.00,,---,0.00,VWS V14.00,2013-03-12 23:35:00,
2013-03-12 16:36:00,79.7,22.6,30.06,NW,315,0.0,4.3,12,0.00,,---,0.00,VWS V14.00,2013-03-12 23:36:00,
2013-03-12 16:37:00,79.7,22.6,30.06,NW,315,0.0,0.0,12,0.00,,---,0.00,VWS V14.00,2013-03-12 23:37:00,
2013-03-12 16:38:00,79.7,22.6,30.06,NW,315,0.0,0.0,12,0.00,,---,0.00,VWS V14.00,2013-03-12 23:38:00,
2013-03-12 16:40:00,79.7,22.6,30.06,NW,315,0.0,0.0,12,0.00,,---,0.00,VWS V14.00,2013-03-12 23:40:00,
2013-03-12 16:41:00,81.3,23.9,30.06,SE,135,0.9,1.6,12,0.00,,---,0.00,VWS V14.00,2013-03-12 23:41:00,
2013-03-12 16:42:00,81.3,23.9,30.06,SE,135,0.9,1.6,12,0.00,,---,0.00,VWS V14.00,2013-03-12 23:42:00,
2013-03-12 16:44:00,81.0,23.6,30.06,NNE,22,2.9,3.6,12,0.00,,---,0.00,VWS V14.00,2013-03-12 23:44:00,
2013-03-12 16:45:00,79.7,22.6,30.06,NNE,22,0.0,3.6,12,0.00,,---,0.00,VWS V14.00,2013-03-12 23:45:00,
2013-03-12 16:46:00,78.4,23.6,30.06,NNE,22,2.9,4.3,13,0.00,,---,0.00,VWS V14.00,2013-03-12 23:46:00,
2013-03-12 16:48:00,78.4,23.6,30.06,NNE,22,2.9,4.3,13,0.00,,---,0.00,VWS V14.00,2013-03-12 23:48:00,
2013-03-12 16:49:00,77.5,22.9,30.06,NNE,22,4.3,4.3,13,0.00,,---,0.00,VWS V14.00,2013-03-12 23:49:00,
2013-03-12 16:50:00,77.5,22.9,30.06,North,0,4.7,5.6,13,0.00,,---,0.00,VWS V14.00,2013-03-12 23:50:00,
2013-03-12 16:51:00,76.5,22.0,30.06,North,0,3.6,4.9,13,0.00,,---,0.00,VWS V14.00,2013-03-12 23:51:00,
2013-03-12 16:52:00,72.1,20.4,30.06,NE,45,2.5,2.5,14,0.00,,---,0.00,VWS V14.00,2013-03-12 23:52:00,
2013-03-12 16:53:00,76.5,22.0,30.06,North,0,0.0,4.9,13,0.00,,---,0.00,VWS V14.00,2013-03-12 23:53:00,
2013-03-12 16:54:00,77.2,22.6,30.06,NE,45,0.9,4.9,13,0.00,,---,0.00,VWS V14.00,2013-03-12 23:54:00,
2013-03-12 16:55:00,77.2,22.6,30.06,East,90,2.0,4.9,13,0.00,,---,0.00,VWS V14.00,2013-03-12 23:55:00,
2013-03-12 16:56:00,77.2,22.6,30.06,East,90,2.5,3.4,13,0.00,,---,0.00,VWS V14.00,2013-03-12 23:56:00,
2013-03-12 16:57:00,72.0,20.2,30.06,East,90,0.9,2.5,14,0.00,,---,0.00,VWS V14.00,2013-03-12 23:57:00,
2013-03-12 16:58:00,77.0,22.4,30.06,ENE,68,2.7,3.4,13,0.00,,---,0.00,VWS V14.00,2013-03-12 23:58:00,
2013-03-12 16:59:00,77.0,22.4,30.06,NNE,22,0.0,3.4,13,0.00,,---,0.00,VWS V14.00,2013-03-12 23:59:00,
2013-03-12 17:00:00,77.2,22.6,30.06,SE,135,3.1,3.8,13,0.00,,---,0.00,VWS V14.00,2013-03-13 00:00:00,
2013-03-12 17:01:00,71.4,19.8,30.06,ENE,68,1.3,2.0,14,0.00,,---,0.00,VWS V14.00,2013-03-13 00:01:00,
2013-03-12 17:02:00,71.4,19.8,30.06,NE,45,2.9,2.9,14,0.00,,---,0.00,VWS V14.00,2013-03-13 00:02:00,
2013-03-12 17:03:00,77.4,22.7,30.06,ENE,68,4.3,4.3,13,0.00,,---,0.00,VWS V14.00,2013-03-13 00:03:00,
2013-03-12 17:04:00,77.2,22.6,30.06,SE,135,2.0,4.3,13,0.00,,---,0.00,VWS V14.00,2013-03-13 00:04:00,
2013-03-12 17:05:00,77.2,22.6,30.06,SE,135,0.0,4.3,13,0.00,,---,0.00,VWS V14.00,2013-03-13 00:05:00,
2013-03-12 17:06:00,71.1,19.5,30.06,ENE,68,2.9,3.4,14,0.00,,---,0.00,VWS V14.00,2013-03-13 00:06:00,
2013-03-12 17:07:00,70.9,19.4,30.06,East,90,3.4,3.4,14,0.00,,---,0.00,VWS V14.00,2013-03-13 00:07:00,
2013-03-12 17:08:00,77.5,22.9,30.06,ENE,68,2.9,4.3,13,0.00,,---,0.00,VWS V14.00,2013-03-13 00:08:00,
2013-03-12 17:09:00,70.2,18.8,30.06,NE,45,0.0,3.1,14,0.00,,---,0.00,VWS V14.00,2013-03-13 00:09:00,
2013-03-12 17:10:00,77.4,22.7,30.06,ENE,68,0.0,4.7,13,0.00,,---,0.00,VWS V14.00,2013-03-13 00:10:00,
2013-03-12 17:11:00,70.0,18.6,30.06,NE,45,2.5,2.5,14,0.00,,---,0.00,VWS V14.00,2013-03-13 00:11:00,
2013-03-12 17:12:00,69.8,18.5,30.06,NNE,22,2.2,2.5,14,0.00,,---,0.00,VWS V14.00,2013-03-13 00:12:00,
2013-03-12 17:13:00,77.4,22.7,30.06,NE,45,5.4,5.4,13,0.00,,---,0.00,VWS V14.00,2013-03-13 00:13:00,
2013-03-12 17:14:00,69.4,19.8,30.06,NE,45,0.0,0.0,15,0.00,,---,0.00,VWS V14.00,2013-03-13 00:14:00,
2013-03-12 17:15:00,77.4,22.7,30.06,ENE,68,1.6,5.4,13,0.00,,---,0.00,VWS V14.00,2013-03-13 00:15:00,
2013-03-12 17:16:00,68.7,19.2,30.06,NE,45,0.0,0.0,15,0.00,,---,0.00,VWS V14.00,2013-03-13 00:16:00,
2013-03-12 17:17:00,68.5,19.1,30.06,NE,45,0.0,0.0,15,0.00,,---,0.00,VWS V14.00,2013-03-13 00:17:00,
2013-03-12 17:18:00,77.2,22.6,30.06,East,90,1.6,2.5,13,0.00,,---,0.00,VWS V14.00,2013-03-13 00:18:00,
2013-03-12 17:19:00,68.2,18.8,30.06,NE,45,0.0,0.0,15,0.00,,---,0.00,VWS V14.00,2013-03-13 00:19:00,
2013-03-12 17:20:00,77.2,22.6,30.06,East,90,3.8,3.8,13,0.00,,---,0.00,VWS V14.00,2013-03-13 00:20:00,
2013-03-12 17:21:00,77.2,22.6,30.06,East,90,3.8,3.8,13,0.00,,---,0.00,VWS V14.00,2013-03-13 00:21:00,
2013-03-12 17:23:00,75.7,21.5,30.06,ENE,68,2.7,3.8,13,0.00,,---,0.00,VWS V14.00,2013-03-13 00:23:00,
2013-03-12 17:24:00,75.2,21.0,30.06,East,90,4.9,4.9,13,0.00,,---,0.00,VWS V14.00,2013-03-13 00:24:00,
2013-03-12 17:25:00,75.2,21.0,30.06,East,90,6.5,6.5,13,0.00,,---,0.00,VWS V14.00,2013-03-13 00:25:00,
2013-03-12 17:26:00,75.2,21.0,30.06,East,90,6.5,6.5,13,0.00,,---,0.00,VWS V14.00,2013-03-13 00:26:00,
2013-03-12 17:28:00,75.2,21.0,30.06,NE,45,1.1,6.5,13,0.00,,---,0.00,VWS V14.00,2013-03-13 00:28:00,
2013-03-12 17:29:00,75.2,21.0,30.06,East,90,2.5,6.5,13,0.00,,---,0.00,VWS V14.00,2013-03-13 00:29:00,
2013-03-12 17:30:00,75.0,20.9,30.06,East,90,2.9,6.5,13,0.00,,---,0.00,VWS V14.00,2013-03-13 00:30:00,
2013-03-12 17:31:00,75.0,20.9,30.06,East,90,2.9,2.9,13,0.00,,---,0.00,VWS V14.00,2013-03-13 00:31:00,
2013-03-12 17:34:00,75.0,20.9,30.06,East,90,4.0,4.0,13,0.00,,---,0.00,VWS V14.00,2013-03-13 00:34:00,
2013-03-12 17:35:00,74.1,20.2,30.06,East,90,3.4,5.4,13,0.00,,---,0.00,VWS V14.00,2013-03-13 00:35:00,
2013-03-12 17:36:00,74.1,20.2,30.06,East,90,4.3,5.4,13,0.00,,---,0.00,VWS V14.00,2013-03-13 00:36:00,
2013-03-12 17:37:00,65.5,16.6,30.06,East,90,0.0,0.0,15,0.00,,---,0.00,VWS V14.00,2013-03-13 00:37:00,
2013-03-12 17:38:00,65.1,16.4,30.06,ENE,68,0.0,0.0,15,0.00,,---,0.00,VWS V14.00,2013-03-13 00:38:00,
2013-03-12 17:39:00,74.3,20.3,30.06,East,90,4.7,4.7,13,0.00,,---,0.00,VWS V14.00,2013-03-13 00:39:00,
2013-03-12 17:40:00,74.1,20.2,30.06,East,90,3.8,4.7,13,0.00,,---,0.00,VWS V14.00,2013-03-13 00:40:00,
2013-03-12 17:41:00,64.4,15.8,30.06,NE,45,0.0,0.0,15,0.00,,---,0.00,VWS V14.00,2013-03-13 00:41:00,
2013-03-12 17:42:00,74.1,20.2,30.06,East,90,2.0,3.6,13,0.00,,---,0.00,VWS V14.00,2013-03-13 00:42:00,
2013-03-12 17:43:00,64.2,17.1,30.06,NE,45,0.0,0.0,16,0.00,,---,0.00,VWS V14.00,2013-03-13 00:43:00,
2013-03-12 17:44:00,73.8,19.9,30.06,East,90,4.9,5.4,13,0.00,,---,0.00,VWS V14.00,2013-03-13 00:44:00,
2013-03-12 17:45:00,73.8,19.9,30.06,East,90,4.0,5.6,13,0.00,,---,0.00,VWS V14.00,2013-03-13 00:45:00,
2013-03-12 17:47:00,73.0,21.1,30.06,ESE,112,5.4,5.4,14,0.00,,---,0.00,VWS V14.00,2013-03-13 00:47:00,
2013-03-12 17:49:00,72.5,20.6,30.06,East,90,2.7,5.4,14,0.00,,---,0.00,VWS V14.00,2013-03-13 00:49:00,
2013-03-12 17:50:00,72.5,20.6,30.06,East,90,2.7,5.4,14,0.00,,---,0.00,VWS V14.00,2013-03-13 00:50:00,
2013-03-12 17:55:00,62.2,15.5,30.06,NE,45,0.0,0.0,16,0.00,,---,0.00,VWS V14.00,2013-03-13 00:55:00,
2013-03-12 18:00:00,61.9,15.2,30.03,ENE,68,0.0,0.0,16,0.00,,---,0.00,VWS V14.00,2013-03-13 01:00:00,
2013-03-12 18:05:00,60.4,15.4,30.03,NNE,22,0.0,0.0,17,0.00,,---,0.00,VWS V14.00,2013-03-13 01:05:00,
2013-03-12 18:10:00,59.5,14.7,30.03,NNE,22,0.0,0.0,17,0.00,,---,0.00,VWS V14.00,2013-03-13 01:10:00,
2013-03-12 18:15:00,58.8,14.1,30.06,NNE,22,0.0,0.0,17,0.00,,---,0.00,VWS V14.00,2013-03-13 01:15:00,
2013-03-12 18:20:00,58.3,13.7,30.06,NNE,22,0.0,0.0,17,0.00,,---,0.00,VWS V14.00,2013-03-13 01:20:00,
2013-03-12 18:25:00,57.7,8.9,30.06,NNE,22,0.0,0.0,14,0.00,,---,0.00,VWS V14.00,2013-03-13 01:25:00,
2013-03-12 18:30:00,57.6,8.7,30.03,NNE,22,0.0,0.0,14,0.00,,---,0.00,VWS V14.00,2013-03-13 01:30:00,
2013-03-12 18:40:00,56.1,9.1,30.03,West,270,0.0,0.0,15,0.00,,---,0.00,VWS V14.00,2013-03-13 01:40:00,
2013-03-12 18:42:00,64.4,15.8,30.06,NE,45,0.0,0.0,15,0.00,,---,0.00,VWS V14.00,2013-03-13 01:42:00,
2013-03-12 18:43:00,64.4,15.8,30.06,NE,45,0.0,0.0,15,0.00,,---,0.00,VWS V14.00,2013-03-13 01:43:00,
2013-03-12 18:45:00,64.0,17.0,30.06,NE,45,0.0,0.0,16,0.00,,---,0.00,VWS V14.00,2013-03-13 01:45:00,
2013-03-12 18:47:00,63.5,16.5,30.06,NE,45,0.0,0.0,16,0.00,,---,0.00,VWS V14.00,2013-03-13 01:47:00,
2013-03-12 18:48:00,63.3,16.4,30.06,NE,45,0.0,0.0,16,0.00,,---,0.00,VWS V14.00,2013-03-13 01:48:00,
2013-03-12 18:50:00,63.1,16.2,30.06,NE,45,0.0,0.0,16,0.00,,---,0.00,VWS V14.00,2013-03-13 01:50:00,
2013-03-12 18:52:00,62.8,15.9,30.06,NE,45,0.0,0.0,16,0.00,,---,0.00,VWS V14.00,2013-03-13 01:52:00,
2013-03-12 18:53:00,62.6,15.8,30.06,NE,45,0.0,0.0,16,0.00,,---,0.00,VWS V14.00,2013-03-13 01:53:00,
2013-03-12 18:55:00,62.2,15.5,30.06,NE,45,0.0,0.0,16,0.00,,---,0.00,VWS V14.00,2013-03-13 01:55:00,
2013-03-12 18:57:00,62.2,15.5,30.06,ENE,68,0.0,0.0,16,0.00,,---,0.00,VWS V14.00,2013-03-13 01:57:00,
2013-03-12 18:59:00,61.9,15.2,30.03,ENE,68,0.0,0.0,16,0.00,,---,0.00,VWS V14.00,2013-03-13 01:59:00,
2013-03-12 19:00:00,61.9,15.2,30.03,ENE,68,0.0,0.0,16,0.00,,---,0.00,VWS V14.00,2013-03-13 02:00:00,
2013-03-12 19:02:00,61.3,14.8,30.03,ENE,68,0.0,0.0,16,0.00,,---,0.00,VWS V14.00,2013-03-13 02:02:00,
2013-03-12 19:04:00,61.0,14.5,30.03,ENE,68,0.0,0.0,16,0.00,,---,0.00,VWS V14.00,2013-03-13 02:04:00,
2013-03-12 19:05:00,61.0,14.5,30.03,NNE,22,0.0,0.0,16,0.00,,---,0.00,VWS V14.00,2013-03-13 02:05:00,
2013-03-12 19:08:00,60.3,15.3,30.03,NNE,22,0.0,0.0,17,0.00,,---,0.00,VWS V14.00,2013-03-13 02:08:00,
2013-03-12 19:09:00,60.1,15.1,30.03,NNE,22,0.0,0.0,17,0.00,,---,0.00,VWS V14.00,2013-03-13 02:09:00,
2013-03-12 19:10:00,59.9,15.0,30.03,NNE,22,0.0,0.0,17,0.00,,---,0.00,VWS V14.00,2013-03-13 02:10:00,
2013-03-12 19:13:00,59.4,14.6,30.06,NNE,22,0.0,0.0,17,0.00,,---,0.00,VWS V14.00,2013-03-13 02:13:00,
2013-03-12 19:14:00,59.2,14.4,30.06,NNE,22,0.0,0.0,17,0.00,,---,0.00,VWS V14.00,2013-03-13 02:14:00,
2013-03-12 19:15:00,59.0,14.3,30.06,NNE,22,0.0,0.0,17,0.00,,---,0.00,VWS V14.00,2013-03-13 02:15:00,
2013-03-12 19:18:00,58.6,14.0,30.06,NNE,22,0.0,0.0,17,0.00,,---,0.00,VWS V14.00,2013-03-13 02:18:00,
2013-03-12 19:19:00,58.5,9.5,30.06,NNE,22,0.0,0.0,14,0.00,,---,0.00,VWS V14.00,2013-03-13 02:19:00,
2013-03-12 19:20:00,58.5,9.5,30.06,NNE,22,0.0,0.0,14,0.00,,---,0.00,VWS V14.00,2013-03-13 02:20:00,
2013-03-12 19:21:00,58.3,13.7,30.06,NNE,22,0.0,0.0,17,0.00,,---,0.00,VWS V14.00,2013-03-13 02:21:00,
2013-03-12 19:23:00,58.1,9.2,30.06,NNE,22,0.0,0.0,14,0.00,,---,0.00,VWS V14.00,2013-03-13 02:23:00,
2013-03-12 19:24:00,57.9,9.0,30.06,NNE,22,0.0,0.0,14,0.00,,---,0.00,VWS V14.00,2013-03-13 02:24:00,
2013-03-12 19:25:00,57.7,8.9,30.06,NNE,22,0.0,0.0,14,0.00,,---,0.00,VWS V14.00,2013-03-13 02:25:00,
2013-03-12 19:26:00,57.7,8.9,30.06,NNE,22,0.0,0.0,14,0.00,,---,0.00,VWS V14.00,2013-03-13 02:26:00,
2013-03-12 19:28:00,57.7,8.9,30.06,NNE,22,0.0,0.0,14,0.00,,---,0.00,VWS V14.00,2013-03-13 02:28:00,
2013-03-12 19:29:00,57.7,8.9,30.03,NNE,22,0.0,0.0,14,0.00,,---,0.00,VWS V14.00,2013-03-13 02:29:00,
2013-03-12 19:30:00,57.6,8.7,30.03,NNE,22,0.0,0.0,14,0.00,,---,0.00,VWS V14.00,2013-03-13 02:30:00,
2013-03-12 19:31:00,57.6,8.7,30.03,NNE,22,0.0,0.0,14,0.00,,---,0.00,VWS V14.00,2013-03-13 02:31:00,
2013-03-12 19:33:00,57.4,8.6,30.03,NNE,22,0.0,0.0,14,0.00,,---,0.00,VWS V14.00,2013-03-13 02:33:00,
2013-03-12 19:34:00,57.2,8.4,30.03,NNE,22,0.0,0.0,14,0.00,,---,0.00,VWS V14.00,2013-03-13 02:34:00,
2013-03-12 19:35:00,57.2,8.4,30.03,NNE,22,0.0,0.0,14,0.00,,---,0.00,VWS V14.00,2013-03-13 02:35:00,
2013-03-12 19:36:00,57.2,8.4,30.03,NNE,22,0.0,0.0,14,0.00,,---,0.00,VWS V14.00,2013-03-13 02:36:00,
2013-03-12 19:38:00,56.7,9.6,30.03,NNE,22,0.0,0.0,15,0.00,,---,0.00,VWS V14.00,2013-03-13 02:38:00,
2013-03-12 19:39:00,56.5,9.4,30.03,West,270,0.0,0.0,15,0.00,,---,0.00,VWS V14.00,2013-03-13 02:39:00,
2013-03-12 19:40:00,56.5,9.4,30.03,West,270,0.0,0.0,15,0.00,,---,0.00,VWS V14.00,2013-03-13 02:40:00,
2013-03-12 19:42:00,56.1,9.1,30.03,West,270,0.0,0.0,15,0.00,,---,0.00,VWS V14.00,2013-03-13 02:42:00,
2013-03-12 19:43:00,55.8,8.8,30.03,West,270,0.0,0.0,15,0.00,,---,0.00,VWS V14.00,2013-03-13 02:43:00,
2013-03-12 19:44:00,55.6,8.7,30.03,West,270,0.0,0.0,15,0.00,,---,0.00,VWS V14.00,2013-03-13 02:44:00,
2013-03-12 19:45:00,55.6,8.7,30.03,West,270,0.0,0.0,15,0.00,,---,0.00,VWS V14.00,2013-03-13 02:45:00,
2013-03-12 19:47:00,55.4,8.5,30.03,West,270,0.0,0.0,15,0.00,,---,0.00,VWS V14.00,2013-03-13 02:47:00,
2013-03-12 19:49:00,55.4,8.5,30.03,West,270,0.0,0.0,15,0.00,,---,0.00,VWS V14.00,2013-03-13 02:49:00,
2013-03-12 19:50:00,55.0,8.2,30.03,West,270,0.0,0.0,15,0.00,,---,0.00,VWS V14.00,2013-03-13 02:50:00,
2013-03-12 19:52:00,54.9,8.1,30.03,West,270,0.0,0.0,15,0.00,,---,0.00,VWS V14.00,2013-03-13 02:52:00,
2013-03-12 19:54:00,54.5,7.8,30.03,West,270,0.0,0.0,15,0.00,,---,0.00,VWS V14.00,2013-03-13 02:54:00,
2013-03-12 19:55:00,54.3,7.7,30.03,West,270,0.0,0.0,15,0.00,,---,0.00,VWS V14.00,2013-03-13 02:55:00,
2013-03-12 19:57:00,54.3,7.7,30.03,West,270,0.0,0.0,15,0.00,,---,0.00,VWS V14.00,2013-03-13 02:57:00,
2013-03-12 19:58:00,51.6,6.9,30.09,West,270,0.0,0.0,16,0.00,,---,0.00,VWS V14.00,2013-03-13 02:58:00,
2013-03-12 19:59:00,54.3,7.7,30.03,West,270,0.0,0.0,15,0.00,,---,0.00,VWS V14.00,2013-03-13 02:59:00,
2013-03-12 20:00:00,54.3,7.7,30.03,West,270,0.0,0.0,15,0.00,,---,0.00,VWS V14.00,2013-03-13 03:00:00,
2013-03-12 20:01:00,54.3,7.7,30.03,West,270,0.0,0.0,15,0.00,,---,0.00,VWS V14.00,2013-03-13 03:01:00,
2013-03-12 20:02:00,51.8,7.1,30.09,West,270,0.0,0.0,16,0.00,,---,0.00,VWS V14.00,2013-03-13 03:02:00,
2013-03-12 20:03:00,54.3,7.7,30.03,West,270,0.0,0.0,15,0.00,,---,0.00,VWS V14.00,2013-03-13 03:03:00,
2013-03-12 20:04:00,54.3,7.7,30.03,West,270,0.0,0.0,15,0.00,,---,0.00,VWS V14.00,2013-03-13 03:04:00,
2013-03-12 20:05:00,54.3,7.7,30.03,West,270,0.0,0.0,15,0.00,,---,0.00,VWS V14.00,2013-03-13 03:05:00,
2013-03-12 20:06:00,54.3,7.7,30.03,West,270,0.0,0.0,15,0.00,,---,0.00,VWS V14.00,2013-03-13 03:06:00,
2013-03-12 20:08:00,54.3,7.7,30.03,WNW,292,0.0,0.0,15,0.00,,---,0.00,VWS V14.00,2013-03-13 03:08:00,
2013-03-12 20:09:00,54.3,7.7,30.03,WNW,292,0.0,0.0,15,0.00,,---,0.00,VWS V14.00,2013-03-13 03:09:00,
2013-03-12 20:10:00,54.3,7.7,30.03,WNW,292,0.0,0.0,15,0.00,,---,0.00,VWS V14.00,2013-03-13 03:10:00,
2013-03-12 20:11:00,54.3,7.7,30.03,WNW,292,0.0,0.0,15,0.00,,---,0.00,VWS V14.00,2013-03-13 03:11:00,
2013-03-12 20:13:00,53.6,7.1,30.06,WNW,292,0.0,0.0,15,0.00,,---,0.00,VWS V14.00,2013-03-13 03:13:00,
2013-03-12 20:14:00,53.6,7.1,30.06,WNW,292,0.0,0.0,15,0.00,,---,0.00,VWS V14.00,2013-03-13 03:14:00,
2013-03-12 20:15:00,53.4,8.4,30.06,WNW,292,0.0,0.0,16,0.00,,---,0.00,VWS V14.00,2013-03-13 03:15:00,
2013-03-12 20:17:00,53.2,8.2,30.06,WNW,292,0.0,0.0,16,0.00,,---,0.00,VWS V14.00,2013-03-13 03:17:00,
2013-03-12 20:18:00,53.2,8.2,30.06,WNW,292,0.0,0.0,16,0.00,,---,0.00,VWS V14.00,2013-03-13 03:18:00,
2013-03-12 20:20:00,52.9,7.9,30.06,WNW,292,0.0,0.0,16,0.00,,---,0.00,VWS V14.00,2013-03-13 03:20:00,
2013-03-12 20:22:00,52.5,7.6,30.06,WNW,292,0.0,0.0,16,0.00,,---,0.00,VWS V14.00,2013-03-13 03:22:00,
2013-03-12 20:23:00,52.5,7.6,30.06,WNW,292,0.0,0.0,16,0.00,,---,0.00,VWS V14.00,2013-03-13 03:23:00,
2013-03-12 20:25:00,52.2,7.3,30.06,WNW,292,0.0,0.0,16,0.00,,---,0.00,VWS V14.00,2013-03-13 03:25:00,
2013-03-12 20:26:00,52.2,7.3,30.06,WNW,292,0.0,0.0,16,0.00,,---,0.00,VWS V14.00,2013-03-13 03:26:00,
2013-03-12 20:27:00,52.2,7.3,30.09,WNW,292,0.0,0.0,16,0.00,,---,0.00,VWS V14.00,2013-03-13 03:27:00,
2013-03-12 20:28:00,52.0,7.2,30.09,WNW,292,0.0,0.0,16,0.00,,---,0.00,VWS V14.00,2013-03-13 03:28:00,
2013-03-12 20:30:00,51.6,6.9,30.09,WNW,292,0.0,0.0,16,0.00,,---,0.00,VWS V14.00,2013-03-13 03:30:00,
2013-03-12 20:31:00,51.6,6.9,30.09,WNW,292,0.0,0.0,16,0.00,,---,0.00,VWS V14.00,2013-03-13 03:31:00,
2013-03-12 20:32:00,51.4,6.8,30.09,WNW,292,0.0,0.0,16,0.00,,---,0.00,VWS V14.00,2013-03-13 03:32:00,
2013-03-12 20:33:00,51.4,6.8,30.09,WNW,292,0.0,0.0,16,0.00,,---,0.00,VWS V14.00,2013-03-13 03:33:00,
2013-03-12 20:35:00,51.3,6.6,30.09,WNW,292,0.0,0.0,16,0.00,,---,0.00,VWS V14.00,2013-03-13 03:35:00,
2013-03-12 20:36:00,51.3,6.6,30.09,WNW,292,0.0,0.0,16,0.00,,---,0.00,VWS V14.00,2013-03-13 03:36:00,
2013-03-12 20:37:00,51.1,6.5,30.09,WNW,292,0.0,0.0,16,0.00,,---,0.00,VWS V14.00,2013-03-13 03:37:00,
2013-03-12 20:39:00,50.9,6.3,30.09,WNW,292,0.0,0.0,16,0.00,,---,0.00,VWS V14.00,2013-03-13 03:39:00,
2013-03-12 20:40:00,50.9,6.3,30.09,West,270,0.0,0.0,16,0.00,,---,0.00,VWS V14.00,2013-03-13 03:40:00,
2013-03-12 20:41:00,50.9,6.3,30.09,West,270,0.0,0.0,16,0.00,,---,0.00,VWS V14.00,2013-03-13 03:41:00,
2013-03-12 20:42:00,50.7,6.2,30.06,South,180,0.0,0.0,16,0.00,,---,0.00,VWS V14.00,2013-03-13 03:42:00,
2013-03-12 20:44:00,50.7,6.2,30.06,South,180,0.0,0.0,16,0.00,,---,0.00,VWS V14.00,2013-03-13 03:44:00,
2013-03-12 20:45:00,51.1,6.5,30.06,South,180,0.0,0.0,16,0.00,,---,0.00,VWS V14.00,2013-03-13 03:45:00,
2013-03-12 20:46:00,51.1,6.5,30.06,South,180,0.0,0.0,16,0.00,,---,0.00,VWS V14.00,2013-03-13 03:46:00,
2013-03-12 20:47:00,51.1,6.5,30.06,South,180,0.0,0.0,16,0.00,,---,0.00,VWS V14.00,2013-03-13 03:47:00,
2013-03-12 20:49:00,51.1,6.5,30.06,South,180,0.0,0.0,16,0.00,,---,0.00,VWS V14.00,2013-03-13 03:49:00,
2013-03-12 20:50:00,49.1,4.9,30.09,WNW,292,0.0,0.0,16,0.00,,---,0.00,VWS V14.00,2013-03-13 03:50:00,
2013-03-12 20:51:00,51.1,6.5,30.06,West,270,0.0,0.0,16,0.00,,---,0.00,VWS V14.00,2013-03-13 03:51:00,
2013-03-12 20:52:00,51.1,6.5,30.06,West,270,0.0,0.0,16,0.00,,---,0.00,VWS V14.00,2013-03-13 03:52:00,
2013-03-12 20:54:00,51.3,6.6,30.06,West,270,0.0,0.0,16,0.00,,---,0.00,VWS V14.00,2013-03-13 03:54:00,
2013-03-12 20:55:00,48.9,4.7,30.09,WNW,292,0.0,0.0,16,0.00,,---,0.00,VWS V14.00,2013-03-13 03:55:00,
2013-03-12 20:56:00,51.3,6.6,30.06,West,270,0.0,0.0,16,0.00,,---,0.00,VWS V14.00,2013-03-13 03:56:00,
2013-03-12 20:58:00,51.4,6.8,30.09,West,270,0.0,0.0,16,0.00,,---,0.00,VWS V14.00,2013-03-13 03:58:00,
2013-03-12 20:59:00,51.4,6.8,30.09,West,270,0.0,0.0,16,0.00,,---,0.00,VWS V14.00,2013-03-13 03:59:00,
2013-03-12 21:00:00,48.4,4.3,30.09,NW,315,0.0,0.0,16,0.00,,---,0.00,VWS V14.00,2013-03-13 04:00:00,
2013-03-12 21:04:00,51.8,7.1,30.09,West,270,0.0,0.0,16,0.00,,---,0.00,VWS V14.00,2013-03-13 04:04:00,
2013-03-12 21:05:00,51.6,6.9,30.09,West,270,0.0,0.0,16,0.00,,---,0.00,VWS V14.00,2013-03-13 04:05:00,
2013-03-12 21:09:00,51.8,7.1,30.09,West,270,0.0,0.0,16,0.00,,---,0.00,VWS V14.00,2013-03-13 04:09:00,
2013-03-12 21:10:00,48.4,4.3,30.09,NNW,338,0.0,0.0,16,0.00,,---,0.00,VWS V14.00,2013-03-13 04:10:00,
2013-03-12 21:11:00,51.8,7.1,30.09,WNW,292,0.0,0.0,16,0.00,,---,0.00,VWS V14.00,2013-03-13 04:11:00,
2013-03-12 21:14:00,51.8,7.1,30.09,WNW,292,0.0,0.0,16,0.00,,---,0.00,VWS V14.00,2013-03-13 04:14:00,
2013-03-12 21:15:00,51.8,7.1,30.09,WNW,292,0.0,0.0,16,0.00,,---,0.00,VWS V14.00,2013-03-13 04:15:00,
2013-03-12 21:16:00,51.8,7.1,30.09,WNW,292,0.0,0.0,16,0.00,,---,0.00,VWS V14.00,2013-03-13 04:16:00,
2013-03-12 21:19:00,51.6,6.9,30.09,WNW,292,0.0,0.0,16,0.00,,---,0.00,VWS V14.00,2013-03-13 04:19:00,
2013-03-12 21:20:00,51.3,6.6,30.09,WNW,292,0.0,0.0,16,0.00,,---,0.00,VWS V14.00,2013-03-13 04:20:00,
2013-03-12 21:21:00,51.3,6.6,30.09,WNW,292,0.0,0.0,16,0.00,,---,0.00,VWS V14.00,2013-03-13 04:21:00,
2013-03-12 21:24:00,50.7,6.2,30.09,WNW,292,0.0,0.0,16,0.00,,---,0.00,VWS V14.00,2013-03-13 04:24:00,
2013-03-12 21:25:00,50.7,6.2,30.09,WNW,292,0.0,0.0,16,0.00,,---,0.00,VWS V14.00,2013-03-13 04:25:00,
2013-03-12 21:26:00,50.5,6.0,30.09,WNW,292,0.0,0.0,16,0.00,,---,0.00,VWS V14.00,2013-03-13 04:26:00,
2013-03-12 21:29:00,50.5,6.0,30.09,WNW,292,0.0,0.0,16,0.00,,---,0.00,VWS V14.00,2013-03-13 04:29:00,
2013-03-12 21:30:00,50.5,6.0,30.09,WNW,292,0.0,0.0,16,0.00,,---,0.00,VWS V14.00,2013-03-13 04:30:00,
2013-03-12 21:31:00,50.5,6.0,30.06,WNW,292,0.0,0.0,16,0.00,,---,0.00,VWS V14.00,2013-03-13 04:31:00,
2013-03-12 21:34:00,49.8,5.4,30.06,WNW,292,0.0,0.0,16,0.00,,---,0.00,VWS V14.00,2013-03-13 04:34:00,
2013-03-12 21:35:00,49.8,5.4,30.06,WNW,292,0.0,0.0,16,0.00,,---,0.00,VWS V14.00,2013-03-13 04:35:00,
2013-03-12 21:36:00,49.8,5.4,30.06,WNW,292,0.0,0.0,16,0.00,,---,0.00,VWS V14.00,2013-03-13 04:36:00,
2013-03-12 21:39:00,50.0,5.6,30.06,ESE,112,0.0,0.0,16,0.00,,---,0.00,VWS V14.00,2013-03-13 04:39:00,
2013-03-12 21:40:00,50.0,5.6,30.06,ESE,112,0.0,0.0,16,0.00,,---,0.00,VWS V14.00,2013-03-13 04:40:00,
2013-03-12 21:41:00,49.6,5.3,30.06,ESE,112,0.0,0.0,16,0.00,,---,0.00,VWS V14.00,2013-03-13 04:41:00,
2013-03-12 21:44:00,49.3,5.0,30.09,ESE,112,0.0,0.0,16,0.00,,---,0.00,VWS V14.00,2013-03-13 04:44:00,
2013-03-12 21:45:00,49.3,5.0,30.09,ESE,112,0.0,0.0,16,0.00,,---,0.00,VWS V14.00,2013-03-13 04:45:00,
2013-03-12 21:47:00,49.3,5.0,30.09,ESE,112,0.0,0.0,16,0.00,,---,0.00,VWS V14.00,2013-03-13 04:47:00,
2013-03-12 21:50:00,49.1,4.9,30.09,WNW,292,0.0,0.0,16,0.00,,---,0.00,VWS V14.00,2013-03-13 04:50:00,
2013-03-12 21:52:00,49.1,4.9,30.09,WNW,292,0.0,0.0,16,0.00,,---,0.00,VWS V14.00,2013-03-13 04:52:00,
2013-03-12 21:55:00,49.1,4.9,30.09,WNW,292,0.0,0.0,16,0.00,,---,0.00,VWS V14.00,2013-03-13 04:55:00,
2013-03-12 21:57:00,48.6,4.4,30.09,WNW,292,0.0,0.0,16,0.00,,---,0.00,VWS V14.00,2013-03-13 04:57:00,
2013-03-12 22:00:00,48.4,4.3,30.09,NW,315,0.0,0.0,16,0.00,,---,0.00,VWS V14.00,2013-03-13 05:00:00,
2013-03-12 22:02:00,48.7,4.6,30.09,NW,315,0.0,0.0,16,0.00,,---,0.00,VWS V14.00,2013-03-13 05:02:00,
2013-03-12 22:05:00,48.7,4.6,30.09,NNW,338,0.0,0.0,16,0.00,,---,0.00,VWS V14.00,2013-03-13 05:05:00,
2013-03-12 22:07:00,48.7,4.6,30.09,NNW,338,0.0,0.0,16,0.00,,---,0.00,VWS V14.00,2013-03-13 05:07:00,
2013-03-12 22:10:00,48.4,4.3,30.09,NNW,338,0.0,0.0,16,0.00,,---,0.00,VWS V14.00,2013-03-13 05:10:00,
2013-03-12 22:11:00,48.4,4.3,30.09,NNW,338,0.0,0.0,16,0.00,,---,0.00,VWS V14.00,2013-03-13 05:11:00,
2013-03-12 22:13:00,47.8,5.2,30.09,NNW,338,0.0,0.0,17,0.00,,---,0.00,VWS V14.00,2013-03-13 05:13:00,
2013-03-12 22:15:00,47.3,4.7,30.12,NW,315,0.0,0.0,17,0.00,,---,0.00,VWS V14.00,2013-03-13 05:15:00,
2013-03-12 22:16:00,47.3,4.7,30.12,NW,315,0.0,0.0,17,0.00,,---,0.00,VWS V14.00,2013-03-13 05:16:00,
2013-03-12 22:18:00,47.1,4.6,30.12,NW,315,0.0,0.0,17,0.00,,---,0.00,VWS V14.00,2013-03-13 05:18:00,
2013-03-12 22:20:00,47.1,4.6,30.12,NW,315,0.0,0.0,17,0.00,,---,0.00,VWS V14.00,2013-03-13 05:20:00,
2013-03-12 22:21:00,47.1,4.6,30.12,NW,315,0.0,0.0,17,0.00,,---,0.00,VWS V14.00,2013-03-13 05:21:00,
2013-03-12 22:23:00,46.9,4.4,30.12,NW,315,0.0,0.0,17,0.00,,---,0.00,VWS V14.00,2013-03-13 05:23:00,
2013-03-12 22:25:00,46.8,4.3,30.12,NW,315,0.0,0.0,17,0.00,,---,0.00,VWS V14.00,2013-03-13 05:25:00,
2013-03-12 22:26:00,46.8,4.3,30.12,NW,315,0.0,0.0,17,0.00,,---,0.00,VWS V14.00,2013-03-13 05:26:00,
2013-03-12 22:28:00,46.6,4.1,30.12,NW,315,0.0,0.0,17,0.00,,---,0.00,VWS V14.00,2013-03-13 05:28:00,
2013-03-12 22:30:00,46.2,3.8,30.12,NW,315,0.0,0.0,17,0.00,,---,0.00,VWS V14.00,2013-03-13 05:30:00,
2013-03-12 22:31:00,46.2,3.8,30.12,NW,315,0.0,0.0,17,0.00,,---,0.00,VWS V14.00,2013-03-13 05:31:00,
2013-03-12 22:32:00,46.0,3.7,30.12,NW,315,0.0,0.0,17,0.00,,---,0.00,VWS V14.00,2013-03-13 05:32:00,
2013-03-12 22:33:00,46.0,3.7,30.12,NW,315,0.0,0.0,17,0.00,,---,0.00,VWS V14.00,2013-03-13 05:33:00,
2013-03-12 22:35:00,46.0,3.7,30.12,NW,315,0.0,0.0,17,0.00,,---,0.00,VWS V14.00,2013-03-13 05:35:00,
2013-03-12 22:36:00,46.0,3.7,30.12,NW,315,0.0,0.0,17,0.00,,---,0.00,VWS V14.00,2013-03-13 05:36:00,
2013-03-12 22:37:00,46.0,3.7,30.12,NW,315,0.0,0.0,17,0.00,,---,0.00,VWS V14.00,2013-03-13 05:37:00,
2013-03-12 22:38:00,45.7,3.4,30.12,NW,315,0.0,0.0,17,0.00,,---,0.00,VWS V14.00,2013-03-13 05:38:00,
2013-03-12 22:40:00,45.5,3.2,30.12,NW,315,0.0,0.0,17,0.00,,---,0.00,VWS V14.00,2013-03-13 05:40:00,
2013-03-12 22:41:00,45.5,3.2,30.12,NW,315,0.0,0.0,17,0.00,,---,0.00,VWS V14.00,2013-03-13 05:41:00,
2013-03-12 22:42:00,45.5,3.2,30.12,NW,315,0.0,0.0,17,0.00,,---,0.00,VWS V14.00,2013-03-13 05:42:00,
2013-03-12 22:43:00,45.1,2.9,30.12,NW,315,0.0,0.0,17,0.00,,---,0.00,VWS V14.00,2013-03-13 05:43:00,
2013-03-12 22:45:00,45.1,2.9,30.12,NW,315,0.0,0.0,17,0.00,,---,0.00,VWS V14.00,2013-03-13 05:45:00,
2013-03-12 22:47:00,45.5,3.2,30.12,NW,315,0.0,0.0,17,0.00,,---,0.00,VWS V14.00,2013-03-13 05:47:00,
2013-03-12 22:49:00,45.5,3.2,30.12,NW,315,0.0,0.0,17,0.00,,---,0.00,VWS V14.00,2013-03-13 05:49:00,
2013-03-12 22:50:00,43.5,2.8,30.12,SSW,202,0.0,0.0,18,0.00,,---,0.00,VWS V14.00,2013-03-13 05:50:00,
2013-03-12 22:52:00,46.4,4.0,30.12,North,0,0.0,2.2,17,0.00,,---,0.00,VWS V14.00,2013-03-13 05:52:00,
2013-03-12 22:53:00,46.4,4.0,30.12,North,0,0.0,2.2,17,0.00,,---,0.00,VWS V14.00,2013-03-13 05:53:00,
2013-03-12 22:54:00,46.4,4.0,30.12,North,0,0.0,2.2,17,0.00,,---,0.00,VWS V14.00,2013-03-13 05:54:00,
2013-03-12 22:55:00,43.2,2.5,30.12,SSW,202,0.0,0.0,18,0.00,,---,0.00,VWS V14.00,2013-03-13 05:55:00,
2013-03-12 22:57:00,46.9,4.4,30.12,North,0,0.0,0.0,17,0.00,,---,0.00,VWS V14.00,2013-03-13 05:57:00,
2013-03-12 22:58:00,46.9,4.4,30.12,North,0,0.0,0.0,17,0.00,,---,0.00,VWS V14.00,2013-03-13 05:58:00,
2013-03-12 22:59:00,46.8,4.3,30.12,North,0,0.0,0.0,17,0.00,,---,0.00,VWS V14.00,2013-03-13 05:59:00,
2013-03-12 23:00:00,43.3,2.7,30.12,SSW,202,0.0,0.0,18,0.00,,---,0.00,VWS V14.00,2013-03-13 06:00:00,
2013-03-12 23:02:00,46.2,3.8,30.12,SE,135,2.2,2.2,17,0.00,,---,0.00,VWS V14.00,2013-03-13 06:02:00,
2013-03-12 23:03:00,46.0,3.7,30.12,South,180,2.9,3.1,17,0.00,,---,0.00,VWS V14.00,2013-03-13 06:03:00,
2013-03-12 23:04:00,45.9,3.5,30.12,South,180,2.9,4.0,17,0.00,,---,0.00,VWS V14.00,2013-03-13 06:04:00,
2013-03-12 23:05:00,43.2,2.5,30.12,SSW,202,0.0,0.0,18,0.00,,---,0.00,VWS V14.00,2013-03-13 06:05:00,
2013-03-12 23:07:00,45.1,2.9,30.12,South,180,0.9,2.0,17,0.00,,---,0.00,VWS V14.00,2013-03-13 06:07:00,
2013-03-12 23:08:00,45.1,2.9,30.12,South,180,0.9,2.0,17,0.00,,---,0.00,VWS V14.00,2013-03-13 06:08:00,
2013-03-12 23:09:00,44.6,2.5,30.12,South,180,0.0,2.0,17,0.00,,---,0.00,VWS V14.00,2013-03-13 06:09:00,
2013-03-12 23:10:00,43.2,2.5,30.12,SSW,202,0.0,0.0,18,0.00,,---,0.00,VWS V14.00,2013-03-13 06:10:00,
2013-03-12 23:12:00,44.2,3.4,30.12,South,180,0.0,0.0,18,0.00,,---,0.00,VWS V14.00,2013-03-13 06:12:00,
2013-03-12 23:13:00,44.2,3.4,30.12,South,180,0.0,0.0,18,0.00,,---,0.00,VWS V14.00,2013-03-13 06:13:00,
2013-03-12 23:14:00,44.2,3.4,30.12,South,180,0.0,0.0,18,0.00,,---,0.00,VWS V14.00,2013-03-13 06:14:00,
2013-03-12 23:15:00,42.4,5.3,30.12,NNW,338,0.0,0.0,21,0.00,,---,0.00,VWS V14.00,2013-03-13 06:15:00,
2013-03-12 23:17:00,44.1,3.3,30.12,South,180,1.6,1.6,18,0.00,,---,0.00,VWS V14.00,2013-03-13 06:17:00,
2013-03-12 23:19:00,43.7,3.0,30.12,South,180,1.3,1.6,18,0.00,,---,0.00,VWS V14.00,2013-03-13 06:19:00,
2013-03-12 23:20:00,42.3,5.1,30.12,NW,315,0.0,0.0,21,0.00,,---,0.00,VWS V14.00,2013-03-13 06:20:00,
2013-03-12 23:22:00,43.5,2.8,30.12,South,180,0.0,0.0,18,0.00,,---,0.00,VWS V14.00,2013-03-13 06:22:00,
2013-03-12 23:23:00,43.5,2.8,30.12,South,180,0.0,0.0,18,0.00,,---,0.00,VWS V14.00,2013-03-13 06:23:00,
2013-03-12 23:24:00,43.5,2.8,30.12,South,180,0.0,0.0,18,0.00,,---,0.00,VWS V14.00,2013-03-13 06:24:00,
2013-03-12 23:27:00,43.3,2.7,30.12,South,180,0.0,0.0,18,0.00,,---,0.00,VWS V14.00,2013-03-13 06:27:00,
2013-03-12 23:28:00,43.3,2.7,30.12,South,180,0.0,0.0,18,0.00,,---,0.00,VWS V14.00,2013-03-13 06:28:00,
2013-03-12 23:29:00,43.3,2.7,30.12,South,180,2.0,2.0,18,0.00,,---,0.00,VWS V14.00,2013-03-13 06:29:00,
2013-03-12 23:33:00,43.3,2.7,30.12,South,180,1.6,2.5,18,0.00,,---,0.00,VWS V14.00,2013-03-13 06:33:00,
2013-03-12 23:34:00,43.5,2.8,30.12,SSW,202,0.0,2.5,18,0.00,,---,0.00,VWS V14.00,2013-03-13 06:34:00,
2013-03-12 23:35:00,43.5,2.8,30.12,SSW,202,0.9,2.5,18,0.00,,---,0.00,VWS V14.00,2013-03-13 06:35:00,
2013-03-12 23:38:00,43.5,2.8,30.12,SSW,202,0.9,2.0,18,0.00,,---,0.00,VWS V14.00,2013-03-13 06:38:00,
2013-03-12 23:40:00,43.5,2.8,30.12,SSW,202,0.0,2.0,18,0.00,,---,0.00,VWS V14.00,2013-03-13 06:40:00,
2013-03-12 23:43:00,43.3,2.7,30.12,SSW,202,0.0,0.0,18,0.00,,---,0.00,VWS V14.00,2013-03-13 06:43:00,
2013-03-12 23:45:00,43.3,2.7,30.12,SSW,202,0.0,0.0,18,0.00,,---,0.00,VWS V14.00,2013-03-13 06:45:00,
2013-03-12 23:48:00,43.3,2.7,30.12,SSW,202,0.0,0.0,18,0.00,,---,0.00,VWS V14.00,2013-03-13 06:48:00,
2013-03-12 23:50:00,43.3,2.7,30.12,SSW,202,0.0,0.0,18,0.00,,---,0.00,VWS V14.00,2013-03-13 06:50:00,
2013-03-12 23:53:00,43.5,2.8,30.12,SSW,202,0.0,0.0,18,0.00,,---,0.00,VWS V14.00,2013-03-13 06:53:00,
2013-03-12 23:55:00,43.2,2.5,30.12,SSW,202,0.0,0.0,18,0.00,,---,0.00,VWS V14.00,2013-03-13 06:55:00,
2013-03-12 23:58:00,43.0,2.4,30.12,SSW,202,0.0,0.0,18,0.00,,---,0.00,VWS V14.00,2013-03-13 06:58:00,